KLM714 SMJP-EHAM
Flight info
| Callsign | KLM714 |
|---|---|
| Flight time | 8h 35m |
| Altitude | 33000 |
| Route | TODOL DCT 0920N05400W DCT LEARP/M084F330 DCT 2646N04700W 36N040W/M084F350 41N035W 44N030W 48N020W 48N015W DCT OMOKO DCT GUNSO DCT GAPLI/N0485F350 DCT GAJIT DCT ENHAQ M197 REDFA |
| Aircraft | B77W/H-SDE1E2E3FGHIJ2J3J4J5M1RWXY/LB1D1 |
Departure
| Time | 2026-04-27 23:01 |
|---|---|
| Airport | Johan Adolf Pengel International Airport (SMJP) |
Arrival
| Time | 2026-04-28 07:37 |
|---|---|
| Airport | Amsterdam Airport Schiphol (EHAM) |
| Time | Latitude | Longitude | Altitude | Speed | Heading |
|---|---|---|---|---|---|
| 2026-04-27 22:29 | 5.45515 | -55.19799 | 67 ft | 0 kts | 88° |
| 2026-04-27 22:53 | 5.45507 | -55.19767 | 61 ft | 9 kts | 121° |
| 2026-04-27 22:54 | 5.45456 | -55.19765 | 59 ft | 9 kts | 229° |
| 2026-04-27 22:54 | 5.45446 | -55.19882 | 66 ft | 22 kts | 268° |
| 2026-04-27 22:54 | 5.45445 | -55.19915 | 65 ft | 0 kts | 268° |
| 2026-04-27 22:56 | 5.45445 | -55.19919 | 65 ft | 4 kts | 268° |
| 2026-04-27 22:56 | 5.45444 | -55.19957 | 65 ft | 6 kts | 268° |
| 2026-04-27 22:56 | 5.45443 | -55.19998 | 64 ft | 6 kts | 268° |
| 2026-04-27 22:57 | 5.45442 | -55.20038 | 65 ft | 6 kts | 268° |
| 2026-04-27 22:57 | 5.45440 | -55.20078 | 58 ft | 6 kts | 268° |
| 2026-04-27 22:57 | 5.45441 | -55.20119 | 58 ft | 6 kts | 271° |
| 2026-04-27 22:57 | 5.45442 | -55.20159 | 66 ft | 6 kts | 271° |
| 2026-04-27 22:58 | 5.45443 | -55.20200 | 66 ft | 6 kts | 271° |
| 2026-04-27 22:58 | 5.45443 | -55.20240 | 65 ft | 6 kts | 271° |
| 2026-04-27 22:58 | 5.45442 | -55.20283 | 64 ft | 6 kts | 263° |
| 2026-04-27 22:58 | 5.45419 | -55.20323 | 59 ft | 7 kts | 215° |
| 2026-04-27 22:59 | 5.45371 | -55.20343 | 57 ft | 8 kts | 190° |
| 2026-04-27 22:59 | 5.45316 | -55.20346 | 60 ft | 8 kts | 182° |
| 2026-04-27 22:59 | 5.45283 | -55.20329 | 53 ft | 3 kts | 110° |
| 2026-04-27 22:59 | 5.45281 | -55.20305 | 53 ft | 3 kts | 90° |
| 2026-04-27 23:00 | 5.45281 | -55.20287 | 57 ft | 15 kts | 90° |
| 2026-04-27 23:00 | 5.45283 | -55.19920 | 61 ft | 89 kts | 89° |
| 2026-04-27 23:00 | 5.45286 | -55.19070 | 59 ft | 154 kts | 89° |
| 2026-04-27 23:01 | 5.45288 | -55.17799 | 84 ft | 203 kts | 88° |
| 2026-04-27 23:01 | 5.45331 | -55.16336 | 452 ft | 210 kts | 84° |
| 2026-04-27 23:01 | 5.45651 | -55.14958 | 1158 ft | 199 kts | 63° |
| 2026-04-27 23:01 | 5.46388 | -55.13840 | 2010 ft | 188 kts | 49° |
| 2026-04-27 23:02 | 5.47446 | -55.13030 | 2388 ft | 203 kts | 20° |
| 2026-04-27 23:02 | 5.48910 | -55.12819 | 2499 ft | 222 kts | 12° |
| 2026-04-27 23:02 | 5.50486 | -55.12483 | 2696 ft | 242 kts | 19° |
| 2026-04-27 23:02 | 5.51573 | -55.12148 | 2945 ft | 251 kts | 22° |
| 2026-04-27 23:03 | 5.52690 | -55.11746 | 3343 ft | 255 kts | 24° |
| 2026-04-27 23:03 | 5.53784 | -55.11305 | 3754 ft | 258 kts | 26° |
| 2026-04-27 23:03 | 5.54666 | -55.10919 | 4109 ft | 260 kts | 27° |
| 2026-04-27 23:03 | 5.56940 | -55.09827 | 4991 ft | 266 kts | 30° |
| 2026-04-27 23:04 | 5.58066 | -55.09244 | 5458 ft | 267 kts | 31° |
| 2026-04-27 23:04 | 5.59704 | -55.08361 | 6153 ft | 269 kts | 32° |
| 2026-04-27 23:04 | 5.61364 | -55.07434 | 6759 ft | 273 kts | 32° |
| 2026-04-27 23:04 | 5.62960 | -55.06520 | 7391 ft | 274 kts | 33° |
| 2026-04-27 23:05 | 5.64603 | -55.05562 | 7998 ft | 277 kts | 33° |
| 2026-04-27 23:05 | 5.66298 | -55.04564 | 8642 ft | 280 kts | 33° |
| 2026-04-27 23:05 | 5.67982 | -55.03565 | 9240 ft | 283 kts | 33° |
| 2026-04-27 23:05 | 5.69688 | -55.02547 | 9866 ft | 285 kts | 33° |
| 2026-04-27 23:06 | 5.71408 | -55.01518 | 10358 ft | 293 kts | 33° |
| 2026-04-27 23:06 | 5.73212 | -55.00434 | 10490 ft | 314 kts | 33° |
| 2026-04-27 23:06 | 5.75147 | -54.99271 | 10665 ft | 334 kts | 33° |
| 2026-04-27 23:06 | 5.77234 | -54.98016 | 10815 ft | 355 kts | 32° |
| 2026-04-27 23:07 | 5.79370 | -54.96733 | 11127 ft | 368 kts | 32° |
| 2026-04-27 23:07 | 5.81609 | -54.95387 | 11659 ft | 375 kts | 32° |
| 2026-04-27 23:07 | 5.83871 | -54.94029 | 12317 ft | 379 kts | 32° |
| 2026-04-27 23:07 | 5.86147 | -54.92661 | 13052 ft | 381 kts | 32° |
| 2026-04-27 23:08 | 5.88424 | -54.91292 | 13753 ft | 383 kts | 32° |
| 2026-04-27 23:08 | 5.90696 | -54.89925 | 14305 ft | 387 kts | 32° |
| 2026-04-27 23:08 | 5.93041 | -54.88513 | 14869 ft | 392 kts | 32° |
| 2026-04-27 23:08 | 5.95370 | -54.87111 | 15430 ft | 395 kts | 32° |
| 2026-04-27 23:09 | 5.97746 | -54.85682 | 16015 ft | 398 kts | 32° |
| 2026-04-27 23:09 | 6.00188 | -54.84268 | 16564 ft | 403 kts | 28° |
| 2026-04-27 23:09 | 6.02771 | -54.83131 | 17106 ft | 408 kts | 21° |
| 2026-04-27 23:09 | 6.05472 | -54.82288 | 17626 ft | 413 kts | 15° |
| 2026-04-27 23:10 | 6.08286 | -54.81621 | 18171 ft | 416 kts | 15° |
| 2026-04-27 23:10 | 6.11149 | -54.80927 | 18635 ft | 420 kts | 15° |
| 2026-04-27 23:10 | 6.13982 | -54.80230 | 19096 ft | 423 kts | 16° |
| 2026-04-27 23:10 | 6.16845 | -54.79520 | 19552 ft | 427 kts | 16° |
| 2026-04-27 23:11 | 6.19737 | -54.78801 | 19995 ft | 430 kts | 16° |
| 2026-04-27 23:11 | 6.22656 | -54.78073 | 20441 ft | 433 kts | 17° |
| 2026-04-27 23:11 | 6.25597 | -54.77339 | 20868 ft | 437 kts | 17° |
| 2026-04-27 23:11 | 6.28572 | -54.76597 | 21303 ft | 440 kts | 17° |
| 2026-04-27 23:12 | 6.31554 | -54.75852 | 21727 ft | 444 kts | 17° |
| 2026-04-27 23:12 | 6.34561 | -54.75101 | 22134 ft | 447 kts | 17° |
| 2026-04-27 23:12 | 6.37598 | -54.74342 | 22537 ft | 450 kts | 17° |
| 2026-04-27 23:12 | 6.40663 | -54.73577 | 22943 ft | 454 kts | 17° |
| 2026-04-27 23:13 | 6.43727 | -54.72812 | 23327 ft | 457 kts | 18° |
| 2026-04-27 23:13 | 6.46828 | -54.72037 | 23685 ft | 460 kts | 18° |
| 2026-04-27 23:13 | 6.49952 | -54.71257 | 24021 ft | 463 kts | 18° |
| 2026-04-27 23:13 | 6.53050 | -54.70483 | 24363 ft | 465 kts | 17° |
| 2026-04-27 23:14 | 6.56240 | -54.69686 | 24716 ft | 467 kts | 17° |
| 2026-04-27 23:14 | 6.59408 | -54.68895 | 25039 ft | 470 kts | 17° |
| 2026-04-27 23:14 | 6.62581 | -54.68102 | 25359 ft | 472 kts | 17° |
| 2026-04-27 23:14 | 6.65771 | -54.67305 | 25672 ft | 474 kts | 17° |
| 2026-04-27 23:15 | 6.68956 | -54.66509 | 25988 ft | 477 kts | 17° |
| 2026-04-27 23:15 | 6.72183 | -54.65702 | 26286 ft | 479 kts | 17° |
| 2026-04-27 23:15 | 6.75461 | -54.64882 | 26593 ft | 482 kts | 17° |
| 2026-04-27 23:15 | 6.78726 | -54.64066 | 26894 ft | 484 kts | 17° |
| 2026-04-27 23:16 | 6.81981 | -54.63251 | 27177 ft | 486 kts | 17° |
| 2026-04-27 23:16 | 6.85302 | -54.62421 | 27483 ft | 489 kts | 17° |
| 2026-04-27 23:16 | 6.88611 | -54.61593 | 27766 ft | 491 kts | 17° |
| 2026-04-27 23:16 | 6.91929 | -54.60762 | 28042 ft | 493 kts | 17° |
| 2026-04-27 23:17 | 6.95224 | -54.59938 | 28318 ft | 495 kts | 17° |
| 2026-04-27 23:17 | 6.98581 | -54.59098 | 28572 ft | 497 kts | 17° |
| 2026-04-27 23:17 | 7.01941 | -54.58257 | 28823 ft | 500 kts | 17° |
| 2026-04-27 23:17 | 7.05319 | -54.57411 | 29055 ft | 502 kts | 17° |
| 2026-04-27 23:18 | 7.08694 | -54.56566 | 29292 ft | 503 kts | 17° |
| 2026-04-27 23:18 | 7.12113 | -54.55710 | 29543 ft | 505 kts | 17° |
| 2026-04-27 23:18 | 7.15527 | -54.54854 | 29752 ft | 507 kts | 17° |
| 2026-04-27 23:18 | 7.19004 | -54.53983 | 30003 ft | 508 kts | 17° |
| 2026-04-27 23:19 | 7.22439 | -54.53123 | 30274 ft | 507 kts | 17° |
| 2026-04-27 23:19 | 7.25815 | -54.52278 | 30573 ft | 506 kts | 17° |
| 2026-04-27 23:19 | 7.29236 | -54.51421 | 30873 ft | 504 kts | 17° |
| 2026-04-27 23:19 | 7.32647 | -54.50566 | 31169 ft | 503 kts | 17° |
| 2026-04-27 23:20 | 7.36030 | -54.49718 | 31435 ft | 503 kts | 17° |
| 2026-04-27 23:20 | 7.39439 | -54.48863 | 31717 ft | 502 kts | 17° |
| 2026-04-27 23:20 | 7.42836 | -54.48011 | 31999 ft | 501 kts | 16° |
| 2026-04-27 23:20 | 7.46202 | -54.47167 | 32299 ft | 500 kts | 16° |
| 2026-04-27 23:21 | 7.49578 | -54.46320 | 32566 ft | 500 kts | 16° |
| 2026-04-27 23:21 | 7.52946 | -54.45475 | 32831 ft | 499 kts | 16° |
| 2026-04-27 23:21 | 7.59725 | -54.43772 | 32965 ft | 501 kts | 16° |
| 2026-04-27 23:22 | 7.66460 | -54.42081 | 32975 ft | 499 kts | 16° |
| 2026-04-27 23:22 | 7.73230 | -54.40382 | 32985 ft | 499 kts | 16° |
| 2026-04-27 23:23 | 7.79938 | -54.38696 | 32983 ft | 499 kts | 16° |
| 2026-04-27 23:23 | 7.86682 | -54.37001 | 32986 ft | 500 kts | 16° |
| 2026-04-27 23:24 | 7.93442 | -54.35301 | 32987 ft | 500 kts | 16° |
| 2026-04-27 23:24 | 8.00199 | -54.33602 | 32988 ft | 500 kts | 16° |
| 2026-04-27 23:25 | 8.06980 | -54.31896 | 32991 ft | 500 kts | 16° |
| 2026-04-27 23:25 | 8.13751 | -54.30192 | 32990 ft | 501 kts | 16° |
| 2026-04-27 23:26 | 8.20471 | -54.28500 | 32991 ft | 501 kts | 16° |
| 2026-04-27 23:26 | 8.27252 | -54.26792 | 32992 ft | 501 kts | 16° |
| 2026-04-27 23:27 | 8.34055 | -54.25079 | 32994 ft | 501 kts | 16° |
| 2026-04-27 23:27 | 8.40785 | -54.23382 | 32998 ft | 501 kts | 16° |
| 2026-04-27 23:28 | 8.47565 | -54.21673 | 32996 ft | 501 kts | 16° |
| 2026-04-27 23:28 | 8.54330 | -54.19967 | 33000 ft | 501 kts | 16° |
| 2026-04-27 23:29 | 8.61103 | -54.18258 | 33001 ft | 501 kts | 16° |
| 2026-04-27 23:29 | 8.67867 | -54.16551 | 33002 ft | 501 kts | 16° |
| 2026-04-27 23:30 | 8.74654 | -54.14837 | 33004 ft | 501 kts | 16° |
| 2026-04-27 23:30 | 8.81434 | -54.13125 | 33000 ft | 501 kts | 16° |
| 2026-04-27 23:31 | 8.88142 | -54.11429 | 33006 ft | 501 kts | 16° |
| 2026-04-27 23:31 | 8.94982 | -54.09700 | 33004 ft | 501 kts | 16° |
| 2026-04-27 23:32 | 9.01690 | -54.08004 | 33008 ft | 501 kts | 16° |
| 2026-04-27 23:32 | 9.08516 | -54.06277 | 33013 ft | 502 kts | 16° |
| 2026-04-27 23:33 | 9.15276 | -54.04566 | 33008 ft | 502 kts | 16° |
| 2026-04-27 23:33 | 9.22048 | -54.02852 | 33016 ft | 502 kts | 16° |
| 2026-04-27 23:34 | 9.28834 | -54.01132 | 33011 ft | 502 kts | 16° |
| 2026-04-27 23:34 | 9.35566 | -53.99307 | 33010 ft | 501 kts | 20° |
| 2026-04-27 23:35 | 9.42140 | -53.97098 | 33020 ft | 501 kts | 20° |
| 2026-04-27 23:35 | 9.48785 | -53.94840 | 33017 ft | 501 kts | 20° |
| 2026-04-27 23:36 | 9.55385 | -53.92615 | 33018 ft | 501 kts | 20° |
| 2026-04-27 23:36 | 9.60931 | -53.90756 | 33015 ft | 501 kts | 20° |
| 2026-04-27 23:37 | 9.67528 | -53.88548 | 33023 ft | 501 kts | 20° |
| 2026-04-27 23:37 | 9.74183 | -53.86320 | 33019 ft | 501 kts | 20° |
| 2026-04-27 23:38 | 9.80853 | -53.84085 | 33021 ft | 502 kts | 20° |
| 2026-04-27 23:38 | 9.87415 | -53.81884 | 33026 ft | 502 kts | 20° |
| 2026-04-27 23:39 | 9.94117 | -53.79636 | 33024 ft | 502 kts | 20° |
| 2026-04-27 23:39 | 10.00692 | -53.77430 | 33024 ft | 502 kts | 20° |
| 2026-04-27 23:40 | 10.07386 | -53.75182 | 33030 ft | 502 kts | 20° |
| 2026-04-27 23:40 | 10.13983 | -53.72966 | 33034 ft | 503 kts | 20° |
| 2026-04-27 23:41 | 10.20670 | -53.70719 | 33031 ft | 504 kts | 20° |
| 2026-04-27 23:41 | 10.27307 | -53.68487 | 33028 ft | 503 kts | 20° |
| 2026-04-27 23:42 | 10.33951 | -53.66253 | 33034 ft | 502 kts | 20° |
| 2026-04-27 23:42 | 10.40587 | -53.64020 | 33036 ft | 502 kts | 20° |
| 2026-04-27 23:43 | 10.47191 | -53.61797 | 33032 ft | 502 kts | 20° |
| 2026-04-27 23:43 | 10.53859 | -53.59551 | 33033 ft | 502 kts | 20° |
| 2026-04-27 23:44 | 10.60451 | -53.57329 | 33035 ft | 503 kts | 20° |
| 2026-04-27 23:44 | 10.67141 | -53.55075 | 33031 ft | 503 kts | 20° |
| 2026-04-27 23:45 | 10.73746 | -53.52847 | 33034 ft | 502 kts | 20° |
| 2026-04-27 23:45 | 10.80393 | -53.50605 | 33033 ft | 502 kts | 20° |
| 2026-04-27 23:46 | 10.87001 | -53.48373 | 33036 ft | 501 kts | 20° |
| 2026-04-27 23:46 | 10.93607 | -53.46141 | 33040 ft | 502 kts | 20° |
| 2026-04-27 23:47 | 11.00274 | -53.43888 | 33037 ft | 503 kts | 20° |
| 2026-04-27 23:47 | 11.06908 | -53.41647 | 33040 ft | 503 kts | 20° |
| 2026-04-27 23:48 | 11.13529 | -53.39407 | 33037 ft | 503 kts | 20° |
| 2026-04-27 23:48 | 11.20197 | -53.37152 | 33043 ft | 503 kts | 20° |
| 2026-04-27 23:49 | 11.26855 | -53.34896 | 33042 ft | 502 kts | 20° |
| 2026-04-27 23:49 | 11.33449 | -53.32663 | 33044 ft | 502 kts | 20° |
| 2026-04-27 23:50 | 11.40094 | -53.30411 | 33050 ft | 504 kts | 20° |
| 2026-04-27 23:50 | 11.46798 | -53.28138 | 33050 ft | 505 kts | 20° |
| 2026-04-27 23:51 | 11.53451 | -53.25881 | 33046 ft | 506 kts | 20° |
| 2026-04-27 23:51 | 11.60111 | -53.23621 | 33047 ft | 505 kts | 20° |
| 2026-04-27 23:52 | 11.66782 | -53.21357 | 33047 ft | 503 kts | 20° |
| 2026-04-27 23:52 | 11.73410 | -53.19105 | 33050 ft | 503 kts | 20° |
| 2026-04-27 23:53 | 11.80062 | -53.16843 | 33054 ft | 503 kts | 20° |
| 2026-04-27 23:53 | 11.86700 | -53.14587 | 33054 ft | 503 kts | 20° |
| 2026-04-27 23:54 | 11.93341 | -53.12328 | 33055 ft | 503 kts | 20° |
| 2026-04-27 23:54 | 11.99956 | -53.10074 | 33056 ft | 502 kts | 20° |
| 2026-04-27 23:55 | 12.06625 | -53.07802 | 33058 ft | 502 kts | 20° |
| 2026-04-27 23:55 | 12.13226 | -53.05554 | 33065 ft | 503 kts | 20° |
| 2026-04-27 23:56 | 12.19895 | -53.03281 | 33062 ft | 506 kts | 20° |
| 2026-04-27 23:56 | 12.26588 | -53.00997 | 33064 ft | 507 kts | 20° |
| 2026-04-27 23:57 | 12.33262 | -52.98718 | 33060 ft | 508 kts | 20° |
| 2026-04-27 23:57 | 12.39959 | -52.96431 | 33060 ft | 507 kts | 20° |
| 2026-04-27 23:58 | 12.46634 | -52.94152 | 33060 ft | 505 kts | 20° |
| 2026-04-27 23:58 | 12.53341 | -52.91860 | 33063 ft | 504 kts | 20° |
| 2026-04-27 23:59 | 12.59958 | -52.89595 | 33071 ft | 505 kts | 20° |
| 2026-04-27 23:59 | 12.66622 | -52.87313 | 33073 ft | 506 kts | 20° |
| 2026-04-28 00:00 | 12.73339 | -52.85013 | 33069 ft | 508 kts | 20° |
| 2026-04-28 00:00 | 12.80049 | -52.82716 | 33071 ft | 508 kts | 20° |
| 2026-04-28 00:01 | 12.86772 | -52.80410 | 33074 ft | 508 kts | 20° |
| 2026-04-28 00:01 | 12.93477 | -52.78109 | 33068 ft | 508 kts | 20° |
| 2026-04-28 00:02 | 13.00149 | -52.75819 | 33076 ft | 507 kts | 20° |
| 2026-04-28 00:02 | 13.06864 | -52.73514 | 33082 ft | 508 kts | 20° |
| 2026-04-28 00:03 | 13.13597 | -52.71202 | 33077 ft | 509 kts | 20° |
| 2026-04-28 00:03 | 13.20284 | -52.68902 | 33077 ft | 509 kts | 20° |
| 2026-04-28 00:04 | 13.30349 | -52.65439 | 33081 ft | 508 kts | 20° |
| 2026-04-28 00:05 | 13.37045 | -52.63133 | 33084 ft | 508 kts | 20° |
| 2026-04-28 00:05 | 13.43770 | -52.60814 | 33081 ft | 509 kts | 20° |
| 2026-04-28 00:06 | 13.50485 | -52.58501 | 33084 ft | 510 kts | 20° |
| 2026-04-28 00:06 | 13.57214 | -52.56183 | 33090 ft | 511 kts | 19° |
| 2026-04-28 00:07 | 13.63961 | -52.53852 | 33086 ft | 510 kts | 20° |
| 2026-04-28 00:07 | 13.70685 | -52.51528 | 33083 ft | 509 kts | 20° |
| 2026-04-28 00:08 | 13.77393 | -52.49215 | 33089 ft | 508 kts | 20° |
| 2026-04-28 00:08 | 13.84084 | -52.46900 | 33083 ft | 509 kts | 20° |
| 2026-04-28 00:09 | 13.90806 | -52.44572 | 33096 ft | 510 kts | 20° |
| 2026-04-28 00:09 | 13.97559 | -52.42235 | 33087 ft | 510 kts | 19° |
| 2026-04-28 00:10 | 14.04236 | -52.39923 | 33092 ft | 510 kts | 19° |
| 2026-04-28 00:10 | 14.11012 | -52.37575 | 33092 ft | 510 kts | 19° |
| 2026-04-28 00:11 | 14.17741 | -52.35238 | 33090 ft | 509 kts | 19° |
| 2026-04-28 00:11 | 14.23312 | -52.33305 | 33090 ft | 508 kts | 19° |
| 2026-04-28 00:12 | 14.30020 | -52.30978 | 33091 ft | 507 kts | 19° |
| 2026-04-28 00:12 | 14.36693 | -52.28660 | 33096 ft | 507 kts | 19° |
| 2026-04-28 00:13 | 14.43395 | -52.26330 | 33097 ft | 506 kts | 19° |
| 2026-04-28 00:13 | 14.50061 | -52.24011 | 33102 ft | 506 kts | 19° |
| 2026-04-28 00:14 | 14.56731 | -52.21688 | 33100 ft | 506 kts | 19° |
| 2026-04-28 00:14 | 14.63400 | -52.19366 | 33102 ft | 506 kts | 19° |
| 2026-04-28 00:15 | 14.70102 | -52.17031 | 33101 ft | 507 kts | 19° |
| 2026-04-28 00:15 | 14.76769 | -52.14705 | 33103 ft | 507 kts | 19° |
| 2026-04-28 00:16 | 14.83479 | -52.12363 | 33103 ft | 508 kts | 19° |
| 2026-04-28 00:16 | 14.90200 | -52.10015 | 33106 ft | 509 kts | 19° |
| 2026-04-28 00:17 | 14.96914 | -52.07670 | 33107 ft | 510 kts | 19° |
| 2026-04-28 00:17 | 15.03636 | -52.05319 | 33112 ft | 511 kts | 19° |
| 2026-04-28 00:18 | 15.10354 | -52.02968 | 33105 ft | 512 kts | 19° |
| 2026-04-28 00:18 | 15.17105 | -52.00604 | 33111 ft | 512 kts | 18° |
| 2026-04-28 00:19 | 15.23843 | -51.98243 | 33109 ft | 511 kts | 18° |
| 2026-04-28 00:19 | 15.30580 | -51.95881 | 33109 ft | 509 kts | 18° |
| 2026-04-28 00:20 | 15.37297 | -51.93524 | 33118 ft | 509 kts | 18° |
| 2026-04-28 00:20 | 15.44030 | -51.91160 | 33116 ft | 509 kts | 18° |
| 2026-04-28 00:21 | 15.50735 | -51.88805 | 33117 ft | 510 kts | 18° |
| 2026-04-28 00:21 | 15.57456 | -51.86442 | 33122 ft | 511 kts | 18° |
| 2026-04-28 00:22 | 15.64230 | -51.84058 | 33122 ft | 512 kts | 18° |
| 2026-04-28 00:22 | 15.70982 | -51.81681 | 33119 ft | 512 kts | 18° |
| 2026-04-28 00:23 | 15.77679 | -51.79322 | 33123 ft | 512 kts | 18° |
| 2026-04-28 00:23 | 15.84443 | -51.76937 | 33122 ft | 512 kts | 18° |
| 2026-04-28 00:24 | 15.91165 | -51.74565 | 33124 ft | 511 kts | 18° |
| 2026-04-28 00:24 | 15.97903 | -51.72186 | 33120 ft | 510 kts | 18° |
| 2026-04-28 00:25 | 16.04634 | -51.69809 | 33123 ft | 509 kts | 18° |
| 2026-04-28 00:25 | 16.11353 | -51.67432 | 33125 ft | 509 kts | 17° |
| 2026-04-28 00:26 | 16.18012 | -51.65076 | 33125 ft | 509 kts | 17° |
| 2026-04-28 00:26 | 16.24757 | -51.62688 | 33128 ft | 508 kts | 17° |
| 2026-04-28 00:27 | 16.31428 | -51.60324 | 33130 ft | 508 kts | 17° |
| 2026-04-28 00:27 | 16.38131 | -51.57948 | 33132 ft | 507 kts | 17° |
| 2026-04-28 00:28 | 16.44790 | -51.55585 | 33132 ft | 507 kts | 17° |
| 2026-04-28 00:28 | 16.51471 | -51.53212 | 33129 ft | 506 kts | 17° |
| 2026-04-28 00:29 | 16.58137 | -51.50843 | 33130 ft | 506 kts | 17° |
| 2026-04-28 00:29 | 16.64814 | -51.48468 | 33133 ft | 506 kts | 17° |
| 2026-04-28 00:30 | 16.71481 | -51.46095 | 33138 ft | 506 kts | 17° |
| 2026-04-28 00:30 | 16.78150 | -51.43721 | 33139 ft | 507 kts | 17° |
| 2026-04-28 00:31 | 16.84843 | -51.41336 | 33140 ft | 507 kts | 17° |
| 2026-04-28 00:31 | 16.91494 | -51.38963 | 33143 ft | 508 kts | 17° |
| 2026-04-28 00:32 | 16.98166 | -51.36581 | 33142 ft | 507 kts | 17° |
| 2026-04-28 00:32 | 17.04862 | -51.34189 | 33143 ft | 507 kts | 17° |
| 2026-04-28 00:33 | 17.11527 | -51.31807 | 33144 ft | 507 kts | 17° |
| 2026-04-28 00:33 | 17.18218 | -51.29413 | 33145 ft | 507 kts | 17° |
| 2026-04-28 00:34 | 17.24912 | -51.27016 | 33148 ft | 507 kts | 17° |
| 2026-04-28 00:34 | 17.31569 | -51.24631 | 33145 ft | 507 kts | 17° |
| 2026-04-28 00:35 | 17.38278 | -51.22225 | 33152 ft | 507 kts | 17° |
| 2026-04-28 00:35 | 17.44935 | -51.19836 | 33150 ft | 508 kts | 17° |
| 2026-04-28 00:36 | 17.51657 | -51.17421 | 33151 ft | 508 kts | 17° |
| 2026-04-28 00:36 | 17.58303 | -51.15033 | 33152 ft | 507 kts | 17° |
| 2026-04-28 00:37 | 17.65028 | -51.12614 | 33153 ft | 508 kts | 17° |
| 2026-04-28 00:37 | 17.71674 | -51.10221 | 33153 ft | 508 kts | 17° |
| 2026-04-28 00:38 | 17.78370 | -51.07808 | 33156 ft | 508 kts | 17° |
| 2026-04-28 00:38 | 17.85062 | -51.05395 | 33155 ft | 508 kts | 17° |
| 2026-04-28 00:39 | 17.91725 | -51.02990 | 33158 ft | 508 kts | 16° |
| 2026-04-28 00:39 | 17.98439 | -51.00565 | 33159 ft | 508 kts | 16° |
| 2026-04-28 00:40 | 18.05065 | -50.97913 | 33160 ft | 509 kts | 19° |
| 2026-04-28 00:40 | 18.11625 | -50.95075 | 33161 ft | 509 kts | 20° |
| 2026-04-28 00:41 | 18.18171 | -50.92233 | 33166 ft | 509 kts | 20° |
| 2026-04-28 00:41 | 18.24739 | -50.89403 | 33163 ft | 509 kts | 19° |
| 2026-04-28 00:42 | 18.31300 | -50.86586 | 33165 ft | 509 kts | 19° |
| 2026-04-28 00:42 | 18.37881 | -50.83761 | 33164 ft | 509 kts | 19° |
| 2026-04-28 00:43 | 18.44407 | -50.80956 | 33170 ft | 509 kts | 19° |
| 2026-04-28 00:43 | 18.51009 | -50.78115 | 33167 ft | 510 kts | 19° |
| 2026-04-28 00:44 | 18.57537 | -50.75304 | 33170 ft | 510 kts | 19° |
| 2026-04-28 00:44 | 18.64122 | -50.72465 | 33170 ft | 510 kts | 19° |
| 2026-04-28 00:45 | 18.69627 | -50.70091 | 33173 ft | 510 kts | 19° |
| 2026-04-28 00:45 | 18.76158 | -50.67271 | 33170 ft | 510 kts | 19° |
| 2026-04-28 00:46 | 18.82741 | -50.64427 | 33173 ft | 510 kts | 19° |
| 2026-04-28 00:46 | 18.89321 | -50.61582 | 33172 ft | 510 kts | 19° |
| 2026-04-28 00:47 | 18.95887 | -50.58740 | 33174 ft | 510 kts | 19° |
| 2026-04-28 00:47 | 19.02471 | -50.55888 | 33174 ft | 511 kts | 19° |
| 2026-04-28 00:48 | 19.09051 | -50.53035 | 33172 ft | 511 kts | 19° |
| 2026-04-28 00:48 | 19.15634 | -50.50179 | 33178 ft | 511 kts | 19° |
| 2026-04-28 00:49 | 19.22199 | -50.47328 | 33181 ft | 511 kts | 19° |
| 2026-04-28 00:49 | 19.28737 | -50.44486 | 33180 ft | 511 kts | 19° |
| 2026-04-28 00:50 | 19.35349 | -50.41609 | 33181 ft | 511 kts | 18° |
| 2026-04-28 00:50 | 19.41910 | -50.38752 | 33184 ft | 511 kts | 18° |
| 2026-04-28 00:51 | 19.48541 | -50.35863 | 33183 ft | 511 kts | 18° |
| 2026-04-28 00:51 | 19.55129 | -50.32989 | 33181 ft | 511 kts | 18° |
| 2026-04-28 00:52 | 19.61689 | -50.30125 | 33184 ft | 512 kts | 18° |
| 2026-04-28 00:52 | 19.68289 | -50.27241 | 33181 ft | 512 kts | 18° |
| 2026-04-28 00:53 | 19.74850 | -50.24372 | 33182 ft | 512 kts | 18° |
| 2026-04-28 00:53 | 19.81457 | -50.21479 | 33183 ft | 512 kts | 18° |
| 2026-04-28 00:54 | 19.88033 | -50.18598 | 33186 ft | 512 kts | 18° |
| 2026-04-28 00:54 | 19.94640 | -50.15701 | 33192 ft | 512 kts | 18° |
| 2026-04-28 00:55 | 20.01240 | -50.12804 | 33190 ft | 512 kts | 18° |
| 2026-04-28 00:55 | 20.07824 | -50.09911 | 33194 ft | 512 kts | 18° |
| 2026-04-28 00:56 | 20.14369 | -50.07033 | 33195 ft | 513 kts | 18° |
| 2026-04-28 00:56 | 20.21001 | -50.04114 | 33193 ft | 513 kts | 18° |
| 2026-04-28 00:57 | 20.27548 | -50.01230 | 33191 ft | 513 kts | 18° |
| 2026-04-28 00:57 | 20.34157 | -49.98315 | 33195 ft | 513 kts | 18° |
| 2026-04-28 00:58 | 20.40765 | -49.95399 | 33199 ft | 513 kts | 18° |
| 2026-04-28 00:58 | 20.47348 | -49.92491 | 33198 ft | 513 kts | 18° |
| 2026-04-28 00:59 | 20.53945 | -49.89574 | 33198 ft | 513 kts | 18° |
| 2026-04-28 00:59 | 20.60569 | -49.86642 | 33197 ft | 514 kts | 18° |
| 2026-04-28 01:00 | 20.67172 | -49.83717 | 33203 ft | 514 kts | 18° |
| 2026-04-28 01:00 | 20.73771 | -49.80790 | 33195 ft | 514 kts | 18° |
| 2026-04-28 01:01 | 20.80340 | -49.77874 | 33191 ft | 514 kts | 18° |
| 2026-04-28 01:01 | 20.86987 | -49.74922 | 33194 ft | 514 kts | 18° |
| 2026-04-28 01:02 | 20.93554 | -49.72001 | 33210 ft | 514 kts | 18° |
| 2026-04-28 01:02 | 21.00170 | -49.69056 | 33204 ft | 514 kts | 18° |
| 2026-04-28 01:03 | 21.06775 | -49.66113 | 33202 ft | 515 kts | 17° |
| 2026-04-28 01:03 | 21.13385 | -49.63165 | 33207 ft | 515 kts | 17° |
| 2026-04-28 01:04 | 21.19989 | -49.60217 | 33207 ft | 515 kts | 17° |
| 2026-04-28 01:04 | 21.26579 | -49.57272 | 33207 ft | 515 kts | 17° |
| 2026-04-28 01:05 | 21.33199 | -49.54311 | 33208 ft | 515 kts | 17° |
| 2026-04-28 01:05 | 21.39841 | -49.51338 | 33210 ft | 515 kts | 17° |
| 2026-04-28 01:06 | 21.46455 | -49.48373 | 33207 ft | 515 kts | 17° |
| 2026-04-28 01:06 | 21.53062 | -49.45409 | 33214 ft | 515 kts | 17° |
| 2026-04-28 01:07 | 21.59688 | -49.42434 | 33211 ft | 515 kts | 17° |
| 2026-04-28 01:07 | 21.66306 | -49.39459 | 33211 ft | 515 kts | 17° |
| 2026-04-28 01:08 | 21.72920 | -49.36483 | 33209 ft | 515 kts | 17° |
| 2026-04-28 01:08 | 21.79536 | -49.33503 | 33214 ft | 515 kts | 17° |
| 2026-04-28 01:09 | 21.86144 | -49.30524 | 33212 ft | 515 kts | 17° |
| 2026-04-28 01:09 | 21.92774 | -49.27532 | 33215 ft | 515 kts | 17° |
| 2026-04-28 01:10 | 21.99342 | -49.24564 | 33214 ft | 514 kts | 17° |
| 2026-04-28 01:10 | 22.05996 | -49.21555 | 33215 ft | 514 kts | 17° |
| 2026-04-28 01:11 | 22.12554 | -49.18587 | 33212 ft | 514 kts | 17° |
| 2026-04-28 01:11 | 22.19197 | -49.15577 | 33215 ft | 514 kts | 17° |
| 2026-04-28 01:12 | 22.25747 | -49.12605 | 33217 ft | 514 kts | 17° |
| 2026-04-28 01:12 | 22.32359 | -49.09603 | 33222 ft | 514 kts | 17° |
| 2026-04-28 01:13 | 22.38968 | -49.06599 | 33222 ft | 515 kts | 17° |
| 2026-04-28 01:13 | 22.48852 | -49.02101 | 33212 ft | 515 kts | 17° |
| 2026-04-28 01:14 | 22.55498 | -48.99072 | 33223 ft | 515 kts | 17° |
| 2026-04-28 01:14 | 22.62100 | -48.96060 | 33217 ft | 515 kts | 17° |
| 2026-04-28 01:15 | 22.68701 | -48.93045 | 33216 ft | 515 kts | 17° |
| 2026-04-28 01:15 | 22.75296 | -48.90030 | 33221 ft | 515 kts | 17° |
| 2026-04-28 01:16 | 22.81874 | -48.87021 | 33217 ft | 515 kts | 17° |
| 2026-04-28 01:16 | 22.88485 | -48.83992 | 33234 ft | 515 kts | 17° |
| 2026-04-28 01:17 | 22.95094 | -48.80961 | 33225 ft | 515 kts | 17° |
| 2026-04-28 01:17 | 23.01708 | -48.77925 | 33219 ft | 515 kts | 17° |
| 2026-04-28 01:18 | 23.08311 | -48.74890 | 33230 ft | 515 kts | 17° |
| 2026-04-28 01:18 | 23.14913 | -48.71853 | 33224 ft | 515 kts | 16° |
| 2026-04-28 01:19 | 23.20402 | -48.69325 | 33224 ft | 516 kts | 16° |
| 2026-04-28 01:19 | 23.28141 | -48.65757 | 33223 ft | 516 kts | 16° |
| 2026-04-28 01:20 | 23.34708 | -48.62726 | 33228 ft | 516 kts | 16° |
| 2026-04-28 01:20 | 23.40246 | -48.60167 | 33226 ft | 517 kts | 16° |
| 2026-04-28 01:21 | 23.46879 | -48.57099 | 33223 ft | 517 kts | 16° |
| 2026-04-28 01:21 | 23.53494 | -48.54037 | 33227 ft | 517 kts | 16° |
| 2026-04-28 01:22 | 23.60125 | -48.50964 | 33228 ft | 518 kts | 16° |
| 2026-04-28 01:22 | 23.66726 | -48.47901 | 33228 ft | 518 kts | 16° |
| 2026-04-28 01:23 | 23.73352 | -48.44823 | 33226 ft | 518 kts | 16° |
| 2026-04-28 01:23 | 23.80018 | -48.41722 | 33230 ft | 519 kts | 16° |
| 2026-04-28 01:24 | 23.86661 | -48.38630 | 33223 ft | 519 kts | 16° |
| 2026-04-28 01:24 | 23.93321 | -48.35525 | 33234 ft | 519 kts | 16° |
| 2026-04-28 01:25 | 23.99932 | -48.32441 | 33228 ft | 519 kts | 16° |
| 2026-04-28 01:25 | 24.06594 | -48.29329 | 33231 ft | 520 kts | 16° |
| 2026-04-28 01:26 | 24.13249 | -48.26217 | 33234 ft | 520 kts | 16° |
| 2026-04-28 01:26 | 24.19845 | -48.23128 | 33232 ft | 520 kts | 16° |
| 2026-04-28 01:27 | 24.26512 | -48.20003 | 33233 ft | 519 kts | 16° |
| 2026-04-28 01:27 | 24.33205 | -48.16862 | 33236 ft | 520 kts | 16° |
| 2026-04-28 01:28 | 24.39820 | -48.13755 | 33235 ft | 520 kts | 16° |
| 2026-04-28 01:28 | 24.46463 | -48.10631 | 33233 ft | 520 kts | 16° |
| 2026-04-28 01:29 | 24.53152 | -48.07480 | 33236 ft | 520 kts | 15° |
| 2026-04-28 01:29 | 24.59752 | -48.04369 | 33239 ft | 519 kts | 15° |
| 2026-04-28 01:30 | 24.66381 | -48.01241 | 33242 ft | 520 kts | 15° |
| 2026-04-28 01:30 | 24.73072 | -47.98079 | 33243 ft | 520 kts | 15° |
| 2026-04-28 01:31 | 24.79685 | -47.94951 | 33243 ft | 520 kts | 15° |
| 2026-04-28 01:31 | 24.86319 | -47.91809 | 33243 ft | 520 kts | 15° |
| 2026-04-28 01:32 | 24.92989 | -47.88646 | 33240 ft | 520 kts | 15° |
| 2026-04-28 01:32 | 24.99647 | -47.85485 | 33243 ft | 520 kts | 15° |
| 2026-04-28 01:33 | 25.06284 | -47.82331 | 33244 ft | 520 kts | 15° |
| 2026-04-28 01:33 | 25.12934 | -47.79166 | 33240 ft | 520 kts | 15° |
| 2026-04-28 01:34 | 25.19585 | -47.75997 | 33241 ft | 521 kts | 15° |
| 2026-04-28 01:34 | 25.26276 | -47.72808 | 33549 ft | 523 kts | 15° |
| 2026-04-28 01:35 | 25.29617 | -47.71211 | 33919 ft | 521 kts | 15° |
| 2026-04-28 01:35 | 25.32902 | -47.69639 | 34289 ft | 518 kts | 15° |
| 2026-04-28 01:35 | 25.36252 | -47.68035 | 34602 ft | 516 kts | 15° |
| 2026-04-28 01:35 | 25.39506 | -47.66478 | 34873 ft | 516 kts | 15° |
| 2026-04-28 01:36 | 25.42788 | -47.64908 | 35088 ft | 516 kts | 14° |
| 2026-04-28 01:36 | 25.46105 | -47.63323 | 35172 ft | 517 kts | 14° |
| 2026-04-28 01:36 | 25.52713 | -47.60159 | 35238 ft | 518 kts | 14° |
| 2026-04-28 01:37 | 25.59313 | -47.56991 | 35245 ft | 517 kts | 14° |
| 2026-04-28 01:37 | 25.65917 | -47.53816 | 35255 ft | 516 kts | 14° |
| 2026-04-28 01:38 | 25.72516 | -47.50642 | 35253 ft | 516 kts | 14° |
| 2026-04-28 01:38 | 25.79087 | -47.47479 | 35253 ft | 517 kts | 14° |
| 2026-04-28 01:39 | 25.85693 | -47.44293 | 35257 ft | 517 kts | 14° |
| 2026-04-28 01:39 | 25.92284 | -47.41111 | 35258 ft | 517 kts | 14° |
| 2026-04-28 01:40 | 25.98897 | -47.37914 | 35253 ft | 517 kts | 14° |
| 2026-04-28 01:40 | 26.05498 | -47.34719 | 35254 ft | 517 kts | 14° |
| 2026-04-28 01:41 | 26.12110 | -47.31515 | 35253 ft | 517 kts | 14° |
| 2026-04-28 01:41 | 26.18701 | -47.28317 | 35258 ft | 517 kts | 14° |
| 2026-04-28 01:42 | 26.25325 | -47.25099 | 35255 ft | 517 kts | 14° |
| 2026-04-28 01:42 | 26.31911 | -47.21896 | 35260 ft | 517 kts | 14° |
| 2026-04-28 01:43 | 26.38477 | -47.18698 | 35259 ft | 517 kts | 14° |
| 2026-04-28 01:43 | 26.45063 | -47.15486 | 35251 ft | 517 kts | 14° |
| 2026-04-28 01:44 | 26.51684 | -47.12254 | 35256 ft | 517 kts | 14° |
| 2026-04-28 01:44 | 26.58276 | -47.09031 | 35260 ft | 517 kts | 14° |
| 2026-04-28 01:45 | 26.64862 | -47.05807 | 35259 ft | 517 kts | 14° |
| 2026-04-28 01:45 | 26.71481 | -47.02562 | 35259 ft | 517 kts | 14° |
| 2026-04-28 01:46 | 26.77996 | -46.99230 | 35258 ft | 524 kts | 20° |
| 2026-04-28 01:46 | 26.84321 | -46.94963 | 35269 ft | 528 kts | 23° |
| 2026-04-28 01:47 | 26.90535 | -46.90663 | 35264 ft | 528 kts | 22° |
| 2026-04-28 01:47 | 26.96797 | -46.86371 | 35262 ft | 527 kts | 22° |
| 2026-04-28 01:48 | 27.03072 | -46.82099 | 35259 ft | 527 kts | 22° |
| 2026-04-28 01:48 | 27.09310 | -46.77857 | 35262 ft | 526 kts | 22° |
| 2026-04-28 01:49 | 27.15593 | -46.73576 | 35264 ft | 526 kts | 22° |
| 2026-04-28 01:49 | 27.21855 | -46.69301 | 35261 ft | 526 kts | 22° |
| 2026-04-28 01:50 | 27.28123 | -46.65015 | 35262 ft | 526 kts | 22° |
| 2026-04-28 01:50 | 27.34388 | -46.60727 | 35260 ft | 526 kts | 22° |
| 2026-04-28 01:51 | 27.40626 | -46.56451 | 35260 ft | 526 kts | 22° |
| 2026-04-28 01:51 | 27.46875 | -46.52161 | 35264 ft | 525 kts | 22° |
| 2026-04-28 01:52 | 27.53114 | -46.47872 | 35264 ft | 525 kts | 22° |
| 2026-04-28 01:52 | 27.59349 | -46.43580 | 35263 ft | 524 kts | 23° |
| 2026-04-28 01:53 | 27.65585 | -46.39283 | 35271 ft | 525 kts | 23° |
| 2026-04-28 01:53 | 27.71765 | -46.35018 | 35265 ft | 525 kts | 23° |
| 2026-04-28 01:54 | 27.78048 | -46.30676 | 35268 ft | 525 kts | 23° |
| 2026-04-28 01:54 | 27.84231 | -46.26397 | 35268 ft | 524 kts | 23° |
| 2026-04-28 01:55 | 27.90498 | -46.22054 | 35269 ft | 525 kts | 23° |
| 2026-04-28 01:55 | 27.96682 | -46.17763 | 35265 ft | 524 kts | 23° |
| 2026-04-28 01:56 | 28.02904 | -46.13440 | 35264 ft | 525 kts | 23° |
| 2026-04-28 01:56 | 28.08086 | -46.09835 | 35269 ft | 525 kts | 23° |
| 2026-04-28 01:57 | 28.14303 | -46.05503 | 35267 ft | 525 kts | 23° |
| 2026-04-28 01:57 | 28.20526 | -46.01162 | 35260 ft | 524 kts | 23° |
| 2026-04-28 01:58 | 28.26755 | -45.96810 | 35257 ft | 524 kts | 23° |
| 2026-04-28 01:58 | 28.32935 | -45.92487 | 35253 ft | 524 kts | 23° |
| 2026-04-28 01:59 | 28.39165 | -45.88123 | 35256 ft | 523 kts | 23° |
| 2026-04-28 01:59 | 28.45351 | -45.83783 | 35260 ft | 522 kts | 23° |
| 2026-04-28 02:00 | 28.51517 | -45.79452 | 35265 ft | 521 kts | 23° |
| 2026-04-28 02:00 | 28.57677 | -45.75118 | 35264 ft | 520 kts | 23° |
| 2026-04-28 02:01 | 28.63831 | -45.70783 | 35264 ft | 519 kts | 23° |
| 2026-04-28 02:01 | 28.69972 | -45.66452 | 35255 ft | 519 kts | 23° |
| 2026-04-28 02:02 | 28.76109 | -45.62118 | 35266 ft | 518 kts | 23° |
| 2026-04-28 02:02 | 28.82233 | -45.57785 | 35267 ft | 517 kts | 23° |
| 2026-04-28 02:03 | 28.88340 | -45.53459 | 35257 ft | 516 kts | 23° |
| 2026-04-28 02:03 | 28.94432 | -45.49138 | 35259 ft | 516 kts | 24° |
| 2026-04-28 02:04 | 29.00555 | -45.44789 | 35257 ft | 516 kts | 24° |
| 2026-04-28 02:04 | 29.06627 | -45.40470 | 35259 ft | 516 kts | 24° |
| 2026-04-28 02:05 | 29.12760 | -45.36102 | 35257 ft | 516 kts | 24° |
| 2026-04-28 02:05 | 29.18815 | -45.31782 | 35254 ft | 516 kts | 24° |
| 2026-04-28 02:06 | 29.24914 | -45.27425 | 35253 ft | 515 kts | 24° |
| 2026-04-28 02:06 | 29.30970 | -45.23091 | 35253 ft | 515 kts | 24° |
| 2026-04-28 02:07 | 29.37049 | -45.18737 | 35255 ft | 515 kts | 24° |
| 2026-04-28 02:07 | 29.43144 | -45.14364 | 35249 ft | 515 kts | 24° |
| 2026-04-28 02:08 | 29.49196 | -45.10016 | 35254 ft | 515 kts | 25° |
| 2026-04-28 02:08 | 29.55286 | -45.05635 | 35254 ft | 515 kts | 25° |
| 2026-04-28 02:09 | 29.61353 | -45.01262 | 35248 ft | 514 kts | 25° |
| 2026-04-28 02:09 | 29.67382 | -44.96912 | 35252 ft | 513 kts | 25° |
| 2026-04-28 02:10 | 29.73444 | -44.92531 | 35253 ft | 513 kts | 25° |
| 2026-04-28 02:10 | 29.79445 | -44.88190 | 35247 ft | 513 kts | 25° |
| 2026-04-28 02:11 | 29.85519 | -44.83787 | 35263 ft | 512 kts | 25° |
| 2026-04-28 02:11 | 29.91569 | -44.79397 | 35250 ft | 513 kts | 25° |
| 2026-04-28 02:12 | 29.97596 | -44.75017 | 35249 ft | 513 kts | 25° |
| 2026-04-28 02:12 | 30.03627 | -44.70628 | 35248 ft | 514 kts | 25° |
| 2026-04-28 02:13 | 30.09683 | -44.66214 | 35248 ft | 515 kts | 25° |
| 2026-04-28 02:13 | 30.15741 | -44.61792 | 35247 ft | 516 kts | 25° |
| 2026-04-28 02:14 | 30.21808 | -44.57356 | 35246 ft | 516 kts | 25° |
| 2026-04-28 02:14 | 30.27898 | -44.52897 | 35245 ft | 517 kts | 25° |
| 2026-04-28 02:15 | 30.37000 | -44.46220 | 35244 ft | 518 kts | 25° |
| 2026-04-28 02:16 | 30.43095 | -44.41740 | 35243 ft | 518 kts | 25° |
| 2026-04-28 02:16 | 30.49184 | -44.37258 | 35242 ft | 518 kts | 25° |
| 2026-04-28 02:17 | 30.55259 | -44.32780 | 35243 ft | 518 kts | 25° |
| 2026-04-28 02:17 | 30.61352 | -44.28282 | 35241 ft | 518 kts | 25° |
| 2026-04-28 02:18 | 30.67442 | -44.23780 | 35240 ft | 518 kts | 25° |
| 2026-04-28 02:18 | 30.73494 | -44.19299 | 35239 ft | 518 kts | 25° |
| 2026-04-28 02:19 | 30.79566 | -44.14796 | 35237 ft | 518 kts | 25° |
| 2026-04-28 02:19 | 30.85635 | -44.10289 | 35236 ft | 517 kts | 25° |
| 2026-04-28 02:20 | 30.91714 | -44.05767 | 35231 ft | 517 kts | 25° |
| 2026-04-28 02:20 | 30.97780 | -44.01248 | 35227 ft | 517 kts | 25° |
| 2026-04-28 02:21 | 31.03850 | -43.96719 | 35232 ft | 517 kts | 25° |
| 2026-04-28 02:21 | 31.09898 | -43.92199 | 35235 ft | 516 kts | 25° |
| 2026-04-28 02:22 | 31.15939 | -43.87678 | 35232 ft | 516 kts | 25° |
| 2026-04-28 02:22 | 31.21973 | -43.83155 | 35230 ft | 515 kts | 26° |
| 2026-04-28 02:23 | 31.28018 | -43.78618 | 35232 ft | 515 kts | 26° |
| 2026-04-28 02:23 | 31.34062 | -43.74074 | 35233 ft | 516 kts | 26° |
| 2026-04-28 02:24 | 31.40096 | -43.69530 | 35229 ft | 515 kts | 26° |
| 2026-04-28 02:24 | 31.46072 | -43.65022 | 35227 ft | 515 kts | 26° |
| 2026-04-28 02:25 | 31.52142 | -43.60438 | 35226 ft | 515 kts | 26° |
| 2026-04-28 02:25 | 31.58159 | -43.55886 | 35224 ft | 515 kts | 26° |
| 2026-04-28 02:26 | 31.64152 | -43.51345 | 35222 ft | 515 kts | 26° |
| 2026-04-28 02:26 | 31.70177 | -43.46772 | 35220 ft | 515 kts | 26° |
| 2026-04-28 02:27 | 31.76192 | -43.42200 | 35219 ft | 515 kts | 26° |
| 2026-04-28 02:27 | 31.82176 | -43.37644 | 35223 ft | 515 kts | 26° |
| 2026-04-28 02:28 | 31.88204 | -43.33048 | 35215 ft | 515 kts | 26° |
| 2026-04-28 02:28 | 31.94220 | -43.28454 | 35218 ft | 515 kts | 26° |
| 2026-04-28 02:29 | 32.00264 | -43.23830 | 35214 ft | 515 kts | 26° |
| 2026-04-28 02:29 | 32.06224 | -43.19264 | 35213 ft | 515 kts | 26° |
| 2026-04-28 02:30 | 32.12291 | -43.14609 | 35208 ft | 515 kts | 26° |
| 2026-04-28 02:30 | 32.18277 | -43.10008 | 35212 ft | 515 kts | 26° |
| 2026-04-28 02:31 | 32.24287 | -43.05382 | 35207 ft | 516 kts | 26° |
| 2026-04-28 02:31 | 32.30301 | -43.00745 | 35207 ft | 515 kts | 26° |
| 2026-04-28 02:32 | 32.36305 | -42.96107 | 35195 ft | 515 kts | 26° |
| 2026-04-28 02:32 | 32.42286 | -42.91481 | 35196 ft | 515 kts | 26° |
| 2026-04-28 02:33 | 32.47313 | -42.87586 | 35202 ft | 515 kts | 26° |
| 2026-04-28 02:33 | 32.53271 | -42.82965 | 35200 ft | 515 kts | 26° |
| 2026-04-28 02:34 | 32.59297 | -42.78282 | 35205 ft | 515 kts | 26° |
| 2026-04-28 02:34 | 32.65309 | -42.73602 | 35203 ft | 515 kts | 26° |
| 2026-04-28 02:35 | 32.71296 | -42.68935 | 35200 ft | 515 kts | 26° |
| 2026-04-28 02:35 | 32.77293 | -42.64251 | 35198 ft | 515 kts | 26° |
| 2026-04-28 02:36 | 32.83262 | -42.59583 | 35195 ft | 515 kts | 26° |
| 2026-04-28 02:36 | 32.89239 | -42.54900 | 35190 ft | 515 kts | 26° |
| 2026-04-28 02:37 | 32.95254 | -42.50179 | 35197 ft | 515 kts | 26° |
| 2026-04-28 02:37 | 33.01197 | -42.45508 | 35202 ft | 515 kts | 25° |
| 2026-04-28 02:38 | 33.07184 | -42.40794 | 35194 ft | 515 kts | 25° |
| 2026-04-28 02:38 | 33.13138 | -42.36099 | 35197 ft | 514 kts | 25° |
| 2026-04-28 02:39 | 33.19138 | -42.31359 | 35178 ft | 514 kts | 25° |
| 2026-04-28 02:39 | 33.25055 | -42.26677 | 35186 ft | 514 kts | 25° |
| 2026-04-28 02:40 | 33.31057 | -42.21920 | 35186 ft | 514 kts | 25° |
| 2026-04-28 02:40 | 33.36983 | -42.17215 | 35187 ft | 514 kts | 25° |
| 2026-04-28 02:41 | 33.42980 | -42.12447 | 35183 ft | 514 kts | 25° |
| 2026-04-28 02:41 | 33.48910 | -42.07722 | 35183 ft | 514 kts | 25° |
| 2026-04-28 02:42 | 33.54822 | -42.03005 | 35183 ft | 513 kts | 25° |
| 2026-04-28 02:42 | 33.60796 | -41.98231 | 35177 ft | 513 kts | 25° |
| 2026-04-28 02:43 | 33.66733 | -41.93477 | 35178 ft | 513 kts | 25° |
| 2026-04-28 02:43 | 33.72688 | -41.88702 | 35178 ft | 513 kts | 25° |
| 2026-04-28 02:44 | 33.78618 | -41.83939 | 35176 ft | 512 kts | 25° |
| 2026-04-28 02:44 | 33.84536 | -41.79176 | 35171 ft | 512 kts | 25° |
| 2026-04-28 02:45 | 33.90392 | -41.74456 | 35171 ft | 511 kts | 25° |
| 2026-04-28 02:45 | 33.96328 | -41.69664 | 35169 ft | 511 kts | 25° |
| 2026-04-28 02:46 | 34.02249 | -41.64877 | 35162 ft | 512 kts | 25° |
| 2026-04-28 02:46 | 34.08157 | -41.60090 | 35161 ft | 512 kts | 25° |
| 2026-04-28 02:47 | 34.14072 | -41.55289 | 35164 ft | 511 kts | 25° |
| 2026-04-28 02:47 | 34.19967 | -41.50497 | 35162 ft | 511 kts | 25° |
| 2026-04-28 02:48 | 34.25839 | -41.45716 | 35164 ft | 512 kts | 25° |
| 2026-04-28 02:48 | 34.31786 | -41.40865 | 35161 ft | 512 kts | 25° |
| 2026-04-28 02:49 | 34.37703 | -41.36029 | 35149 ft | 511 kts | 25° |
| 2026-04-28 02:49 | 34.43570 | -41.31226 | 35158 ft | 511 kts | 25° |
| 2026-04-28 02:50 | 34.49477 | -41.26384 | 35156 ft | 511 kts | 25° |
| 2026-04-28 02:50 | 34.55374 | -41.21539 | 35159 ft | 511 kts | 25° |
| 2026-04-28 02:51 | 34.61230 | -41.16720 | 35155 ft | 510 kts | 25° |
| 2026-04-28 02:51 | 34.67133 | -41.11854 | 35153 ft | 510 kts | 25° |
| 2026-04-28 02:52 | 34.72965 | -41.07039 | 35147 ft | 509 kts | 25° |
| 2026-04-28 02:52 | 34.78825 | -41.02192 | 35146 ft | 510 kts | 25° |
| 2026-04-28 02:53 | 34.84668 | -40.97352 | 35143 ft | 510 kts | 25° |
| 2026-04-28 02:53 | 34.90594 | -40.92434 | 35143 ft | 511 kts | 25° |
| 2026-04-28 02:54 | 34.96426 | -40.87583 | 35129 ft | 511 kts | 25° |
| 2026-04-28 02:54 | 35.02335 | -40.82661 | 35133 ft | 511 kts | 25° |
| 2026-04-28 02:55 | 35.08209 | -40.77760 | 35125 ft | 511 kts | 25° |
| 2026-04-28 02:55 | 35.14047 | -40.72880 | 35127 ft | 513 kts | 26° |
| 2026-04-28 02:56 | 35.19976 | -40.67915 | 35128 ft | 514 kts | 26° |
| 2026-04-28 02:56 | 35.25871 | -40.62970 | 35125 ft | 514 kts | 26° |
| 2026-04-28 02:57 | 35.31739 | -40.58037 | 35119 ft | 514 kts | 26° |
| 2026-04-28 02:57 | 35.37631 | -40.53076 | 35118 ft | 514 kts | 26° |
| 2026-04-28 02:58 | 35.43560 | -40.48075 | 35107 ft | 514 kts | 26° |
| 2026-04-28 02:58 | 35.49428 | -40.43116 | 35106 ft | 514 kts | 26° |
| 2026-04-28 02:59 | 35.55315 | -40.38132 | 35102 ft | 514 kts | 26° |
| 2026-04-28 02:59 | 35.61194 | -40.33146 | 35106 ft | 514 kts | 26° |
| 2026-04-28 03:00 | 35.67078 | -40.28147 | 35099 ft | 514 kts | 26° |
| 2026-04-28 03:00 | 35.72966 | -40.23135 | 35096 ft | 513 kts | 27° |
| 2026-04-28 03:01 | 35.78847 | -40.18119 | 35093 ft | 513 kts | 27° |
| 2026-04-28 03:01 | 35.84697 | -40.13121 | 35082 ft | 512 kts | 27° |
| 2026-04-28 03:02 | 35.90522 | -40.08135 | 35085 ft | 512 kts | 27° |
| 2026-04-28 03:02 | 35.96418 | -40.03079 | 35077 ft | 512 kts | 27° |
| 2026-04-28 03:03 | 36.02252 | -39.98030 | 35088 ft | 514 kts | 28° |
| 2026-04-28 03:03 | 36.08005 | -39.92772 | 35082 ft | 515 kts | 30° |
| 2026-04-28 03:04 | 36.13712 | -39.87465 | 35074 ft | 515 kts | 30° |
| 2026-04-28 03:04 | 36.19470 | -39.82132 | 35081 ft | 515 kts | 29° |
| 2026-04-28 03:05 | 36.25201 | -39.76844 | 35070 ft | 515 kts | 29° |
| 2026-04-28 03:05 | 36.30961 | -39.71529 | 35068 ft | 516 kts | 29° |
| 2026-04-28 03:06 | 36.36718 | -39.66204 | 35063 ft | 516 kts | 29° |
| 2026-04-28 03:06 | 36.42465 | -39.60878 | 35064 ft | 516 kts | 29° |
| 2026-04-28 03:07 | 36.48194 | -39.55557 | 35057 ft | 517 kts | 29° |
| 2026-04-28 03:07 | 36.54001 | -39.50153 | 35050 ft | 518 kts | 29° |
| 2026-04-28 03:08 | 36.59787 | -39.44759 | 35048 ft | 519 kts | 29° |
| 2026-04-28 03:08 | 36.64583 | -39.40279 | 35044 ft | 519 kts | 29° |
| 2026-04-28 03:09 | 36.70367 | -39.34867 | 35051 ft | 520 kts | 29° |
| 2026-04-28 03:09 | 36.76156 | -39.29440 | 35045 ft | 521 kts | 29° |
| 2026-04-28 03:10 | 36.81947 | -39.24001 | 35041 ft | 522 kts | 29° |
| 2026-04-28 03:10 | 36.87770 | -39.18521 | 35036 ft | 523 kts | 29° |
| 2026-04-28 03:11 | 36.93550 | -39.13071 | 35033 ft | 524 kts | 29° |
| 2026-04-28 03:11 | 36.99405 | -39.07539 | 35024 ft | 524 kts | 29° |
| 2026-04-28 03:12 | 37.05197 | -39.02056 | 35021 ft | 525 kts | 29° |
| 2026-04-28 03:12 | 37.11026 | -38.96527 | 35027 ft | 526 kts | 29° |
| 2026-04-28 03:13 | 37.16856 | -38.90986 | 35021 ft | 526 kts | 29° |
| 2026-04-28 03:13 | 37.22699 | -38.85422 | 35016 ft | 527 kts | 29° |
| 2026-04-28 03:14 | 37.28547 | -38.79842 | 35020 ft | 528 kts | 29° |
| 2026-04-28 03:14 | 37.34404 | -38.74241 | 35008 ft | 528 kts | 29° |
| 2026-04-28 03:15 | 37.40274 | -38.68618 | 35014 ft | 530 kts | 29° |
| 2026-04-28 03:15 | 37.46115 | -38.63013 | 35012 ft | 531 kts | 29° |
| 2026-04-28 03:16 | 37.51974 | -38.57377 | 35007 ft | 531 kts | 29° |
| 2026-04-28 03:16 | 37.57863 | -38.51699 | 35007 ft | 532 kts | 30° |
| 2026-04-28 03:17 | 37.63735 | -38.46029 | 35003 ft | 533 kts | 30° |
| 2026-04-28 03:17 | 37.72575 | -38.37469 | 34997 ft | 534 kts | 30° |
| 2026-04-28 03:18 | 37.78477 | -38.31738 | 34997 ft | 535 kts | 30° |
| 2026-04-28 03:18 | 37.84394 | -38.25982 | 34980 ft | 535 kts | 30° |
| 2026-04-28 03:19 | 37.90290 | -38.20235 | 34985 ft | 536 kts | 30° |
| 2026-04-28 03:19 | 37.96217 | -38.14446 | 34985 ft | 538 kts | 30° |
| 2026-04-28 03:20 | 38.02141 | -38.08648 | 34991 ft | 538 kts | 31° |
| 2026-04-28 03:20 | 38.08050 | -38.02850 | 34988 ft | 539 kts | 31° |
| 2026-04-28 03:21 | 38.14027 | -37.96974 | 34976 ft | 539 kts | 31° |
| 2026-04-28 03:21 | 38.19936 | -37.91154 | 34976 ft | 540 kts | 31° |
| 2026-04-28 03:22 | 38.25886 | -37.85280 | 34969 ft | 541 kts | 31° |
| 2026-04-28 03:22 | 38.31841 | -37.79388 | 34962 ft | 542 kts | 31° |
| 2026-04-28 03:23 | 38.37777 | -37.73502 | 34964 ft | 542 kts | 32° |
| 2026-04-28 03:23 | 38.43739 | -37.67577 | 34962 ft | 542 kts | 32° |
| 2026-04-28 03:24 | 38.49696 | -37.61647 | 34960 ft | 542 kts | 32° |
| 2026-04-28 03:24 | 38.55618 | -37.55738 | 34961 ft | 543 kts | 32° |
| 2026-04-28 03:25 | 38.61582 | -37.49774 | 34956 ft | 543 kts | 32° |
| 2026-04-28 03:25 | 38.67557 | -37.43787 | 34948 ft | 544 kts | 33° |
| 2026-04-28 03:26 | 38.73470 | -37.37848 | 34947 ft | 545 kts | 33° |
| 2026-04-28 03:26 | 38.79478 | -37.31799 | 34945 ft | 545 kts | 33° |
| 2026-04-28 03:27 | 38.85450 | -37.25775 | 34946 ft | 544 kts | 33° |
| 2026-04-28 03:27 | 38.91358 | -37.19802 | 34948 ft | 544 kts | 33° |
| 2026-04-28 03:28 | 38.97344 | -37.13738 | 34948 ft | 545 kts | 34° |
| 2026-04-28 03:28 | 39.03263 | -37.07727 | 34944 ft | 545 kts | 34° |
| 2026-04-28 03:29 | 39.09217 | -37.01668 | 34937 ft | 545 kts | 34° |
| 2026-04-28 03:29 | 39.15165 | -36.95601 | 34940 ft | 545 kts | 34° |
| 2026-04-28 03:30 | 39.21089 | -36.89546 | 34935 ft | 544 kts | 34° |
| 2026-04-28 03:30 | 39.27026 | -36.83463 | 34922 ft | 544 kts | 34° |
| 2026-04-28 03:31 | 39.32948 | -36.77384 | 34919 ft | 545 kts | 35° |
| 2026-04-28 03:31 | 39.38870 | -36.71290 | 34923 ft | 546 kts | 35° |
| 2026-04-28 03:32 | 39.44791 | -36.65183 | 34918 ft | 546 kts | 35° |
| 2026-04-28 03:32 | 39.50749 | -36.59023 | 34918 ft | 545 kts | 35° |
| 2026-04-28 03:33 | 39.56681 | -36.52878 | 34916 ft | 545 kts | 36° |
| 2026-04-28 03:33 | 39.62596 | -36.46737 | 34915 ft | 545 kts | 36° |
| 2026-04-28 03:34 | 39.68526 | -36.40566 | 34913 ft | 545 kts | 36° |
| 2026-04-28 03:34 | 39.74433 | -36.34405 | 34913 ft | 545 kts | 36° |
| 2026-04-28 03:35 | 39.80374 | -36.28194 | 34911 ft | 545 kts | 36° |
| 2026-04-28 03:35 | 39.86230 | -36.22058 | 34909 ft | 545 kts | 36° |
| 2026-04-28 03:36 | 39.92173 | -36.15817 | 34903 ft | 546 kts | 36° |
| 2026-04-28 03:36 | 39.98096 | -36.09582 | 34906 ft | 546 kts | 37° |
| 2026-04-28 03:37 | 40.03998 | -36.03356 | 34903 ft | 546 kts | 37° |
| 2026-04-28 03:37 | 40.09910 | -35.97104 | 34902 ft | 545 kts | 37° |
| 2026-04-28 03:38 | 40.15803 | -35.90857 | 34901 ft | 545 kts | 37° |
| 2026-04-28 03:38 | 40.21664 | -35.84631 | 34900 ft | 546 kts | 37° |
| 2026-04-28 03:39 | 40.27575 | -35.78337 | 34899 ft | 546 kts | 37° |
| 2026-04-28 03:39 | 40.33463 | -35.72054 | 34897 ft | 546 kts | 37° |
| 2026-04-28 03:40 | 40.39334 | -35.65773 | 34899 ft | 547 kts | 37° |
| 2026-04-28 03:40 | 40.45248 | -35.59432 | 34896 ft | 546 kts | 38° |
| 2026-04-28 03:41 | 40.51125 | -35.53115 | 34893 ft | 546 kts | 38° |
| 2026-04-28 03:41 | 40.56994 | -35.46793 | 34894 ft | 545 kts | 38° |
| 2026-04-28 03:42 | 40.62869 | -35.40449 | 34892 ft | 545 kts | 38° |
| 2026-04-28 03:42 | 40.68724 | -35.34112 | 34893 ft | 546 kts | 38° |
| 2026-04-28 03:43 | 40.74587 | -35.27751 | 34893 ft | 547 kts | 38° |
| 2026-04-28 03:43 | 40.79470 | -35.22441 | 34888 ft | 546 kts | 38° |
| 2026-04-28 03:44 | 40.85343 | -35.16041 | 34887 ft | 545 kts | 38° |
| 2026-04-28 03:44 | 40.91136 | -35.09713 | 34892 ft | 544 kts | 38° |
| 2026-04-28 03:45 | 40.96984 | -35.03311 | 34892 ft | 544 kts | 39° |
| 2026-04-28 03:45 | 41.02495 | -34.96449 | 34883 ft | 545 kts | 49° |
| 2026-04-28 03:46 | 41.07392 | -34.88784 | 34889 ft | 545 kts | 50° |
| 2026-04-28 03:46 | 41.12274 | -34.81129 | 34888 ft | 545 kts | 50° |
| 2026-04-28 03:47 | 41.17189 | -34.73491 | 34889 ft | 544 kts | 50° |
| 2026-04-28 03:47 | 41.22130 | -34.65840 | 34892 ft | 544 kts | 50° |
| 2026-04-28 03:48 | 41.27054 | -34.58199 | 34891 ft | 544 kts | 50° |
| 2026-04-28 03:48 | 41.31967 | -34.50548 | 34893 ft | 544 kts | 50° |
| 2026-04-28 03:49 | 41.36869 | -34.42891 | 34894 ft | 544 kts | 50° |
| 2026-04-28 03:49 | 41.41784 | -34.35194 | 34895 ft | 544 kts | 51° |
| 2026-04-28 03:50 | 41.46678 | -34.27510 | 34898 ft | 544 kts | 51° |
| 2026-04-28 03:50 | 41.51579 | -34.19797 | 34897 ft | 544 kts | 51° |
| 2026-04-28 03:51 | 41.56468 | -34.12081 | 34894 ft | 544 kts | 51° |
| 2026-04-28 03:51 | 41.61357 | -34.04347 | 34898 ft | 544 kts | 51° |
| 2026-04-28 03:52 | 41.66217 | -33.96639 | 34895 ft | 544 kts | 51° |
| 2026-04-28 03:52 | 41.71094 | -33.88884 | 34898 ft | 544 kts | 51° |
| 2026-04-28 03:53 | 41.75948 | -33.81146 | 34900 ft | 543 kts | 51° |
| 2026-04-28 03:53 | 41.80824 | -33.73351 | 34901 ft | 543 kts | 52° |
| 2026-04-28 03:54 | 41.85661 | -33.65600 | 34900 ft | 544 kts | 52° |
| 2026-04-28 03:54 | 41.90506 | -33.57815 | 34904 ft | 544 kts | 52° |
| 2026-04-28 03:55 | 41.95362 | -33.49993 | 34905 ft | 543 kts | 52° |
| 2026-04-28 03:55 | 42.00194 | -33.42187 | 34902 ft | 543 kts | 52° |
| 2026-04-28 03:56 | 42.05010 | -33.34389 | 34910 ft | 542 kts | 52° |
| 2026-04-28 03:56 | 42.09814 | -33.26588 | 34906 ft | 542 kts | 52° |
| 2026-04-28 03:57 | 42.14631 | -33.18747 | 34910 ft | 542 kts | 52° |
| 2026-04-28 03:57 | 42.19431 | -33.10912 | 34908 ft | 542 kts | 52° |
| 2026-04-28 03:58 | 42.24236 | -33.03050 | 34909 ft | 541 kts | 53° |
| 2026-04-28 03:58 | 42.29010 | -32.95216 | 34908 ft | 541 kts | 53° |
| 2026-04-28 03:59 | 42.33771 | -32.87383 | 34909 ft | 541 kts | 53° |
| 2026-04-28 03:59 | 42.38564 | -32.79477 | 34908 ft | 540 kts | 53° |
| 2026-04-28 04:00 | 42.43313 | -32.71624 | 34908 ft | 540 kts | 53° |
| 2026-04-28 04:00 | 42.48048 | -32.63772 | 34911 ft | 540 kts | 53° |
| 2026-04-28 04:01 | 42.52834 | -32.55814 | 34917 ft | 540 kts | 53° |
| 2026-04-28 04:01 | 42.57554 | -32.47947 | 34936 ft | 540 kts | 53° |
| 2026-04-28 04:02 | 42.62305 | -32.40005 | 34907 ft | 540 kts | 53° |
| 2026-04-28 04:02 | 42.67006 | -32.32126 | 34910 ft | 540 kts | 53° |
| 2026-04-28 04:03 | 42.71758 | -32.24141 | 34909 ft | 539 kts | 53° |
| 2026-04-28 04:03 | 42.76419 | -32.16286 | 34902 ft | 538 kts | 54° |
| 2026-04-28 04:04 | 42.81140 | -32.08310 | 34913 ft | 538 kts | 54° |
| 2026-04-28 04:04 | 42.85823 | -32.00375 | 34915 ft | 538 kts | 54° |
| 2026-04-28 04:05 | 42.90516 | -31.92405 | 34913 ft | 538 kts | 54° |
| 2026-04-28 04:05 | 42.95185 | -31.84453 | 34908 ft | 537 kts | 54° |
| 2026-04-28 04:06 | 42.99837 | -31.76508 | 34915 ft | 537 kts | 54° |
| 2026-04-28 04:06 | 43.04528 | -31.68473 | 34912 ft | 538 kts | 54° |
| 2026-04-28 04:07 | 43.09188 | -31.60472 | 34917 ft | 537 kts | 54° |
| 2026-04-28 04:07 | 43.13832 | -31.52476 | 34912 ft | 537 kts | 54° |
| 2026-04-28 04:08 | 43.18483 | -31.44446 | 34915 ft | 537 kts | 55° |
| 2026-04-28 04:08 | 43.23122 | -31.36415 | 34930 ft | 537 kts | 55° |
| 2026-04-28 04:09 | 43.27749 | -31.28381 | 34924 ft | 536 kts | 55° |
| 2026-04-28 04:09 | 43.32373 | -31.20333 | 34919 ft | 536 kts | 55° |
| 2026-04-28 04:10 | 43.36996 | -31.12263 | 34921 ft | 535 kts | 55° |
| 2026-04-28 04:10 | 43.41598 | -31.04209 | 34915 ft | 535 kts | 55° |
| 2026-04-28 04:11 | 43.46182 | -30.96162 | 34917 ft | 535 kts | 56° |
| 2026-04-28 04:11 | 43.50768 | -30.88091 | 34916 ft | 534 kts | 56° |
| 2026-04-28 04:12 | 43.55348 | -30.80008 | 34919 ft | 534 kts | 56° |
| 2026-04-28 04:12 | 43.59892 | -30.71966 | 34921 ft | 534 kts | 56° |
| 2026-04-28 04:13 | 43.64453 | -30.63872 | 34926 ft | 534 kts | 56° |
| 2026-04-28 04:13 | 43.69023 | -30.55740 | 34923 ft | 533 kts | 56° |
| 2026-04-28 04:14 | 43.73559 | -30.47645 | 34931 ft | 533 kts | 56° |
| 2026-04-28 04:14 | 43.78086 | -30.39543 | 34926 ft | 533 kts | 56° |
| 2026-04-28 04:15 | 43.82633 | -30.31384 | 34934 ft | 533 kts | 56° |
| 2026-04-28 04:16 | 43.89417 | -30.19167 | 34929 ft | 532 kts | 57° |
| 2026-04-28 04:16 | 43.93887 | -30.11087 | 34926 ft | 532 kts | 57° |
| 2026-04-28 04:17 | 43.98388 | -30.02932 | 34928 ft | 532 kts | 57° |
| 2026-04-28 04:17 | 44.02687 | -29.94539 | 34930 ft | 529 kts | 61° |
| 2026-04-28 04:18 | 44.06710 | -29.85984 | 34942 ft | 528 kts | 62° |
| 2026-04-28 04:18 | 44.10698 | -29.77453 | 34937 ft | 528 kts | 62° |
| 2026-04-28 04:19 | 44.14713 | -29.68898 | 34940 ft | 528 kts | 62° |
| 2026-04-28 04:19 | 44.18065 | -29.61764 | 34946 ft | 528 kts | 62° |
| 2026-04-28 04:20 | 44.22109 | -29.53142 | 34944 ft | 527 kts | 62° |
| 2026-04-28 04:20 | 44.26112 | -29.44579 | 34953 ft | 527 kts | 62° |
| 2026-04-28 04:21 | 44.30119 | -29.35978 | 34952 ft | 527 kts | 62° |
| 2026-04-28 04:21 | 44.34087 | -29.27436 | 34955 ft | 527 kts | 63° |
| 2026-04-28 04:22 | 44.38090 | -29.18792 | 34949 ft | 526 kts | 63° |
| 2026-04-28 04:22 | 44.42062 | -29.10191 | 34953 ft | 526 kts | 63° |
| 2026-04-28 04:23 | 44.45998 | -29.01639 | 34971 ft | 526 kts | 63° |
| 2026-04-28 04:23 | 44.49958 | -28.93012 | 34966 ft | 526 kts | 63° |
| 2026-04-28 04:24 | 44.53911 | -28.84374 | 34958 ft | 525 kts | 63° |
| 2026-04-28 04:24 | 44.57838 | -28.75768 | 34959 ft | 525 kts | 63° |
| 2026-04-28 04:25 | 44.61773 | -28.67117 | 34952 ft | 524 kts | 63° |
| 2026-04-28 04:25 | 44.65669 | -28.58525 | 34963 ft | 525 kts | 63° |
| 2026-04-28 04:26 | 44.69584 | -28.49865 | 34967 ft | 525 kts | 63° |
| 2026-04-28 04:26 | 44.73489 | -28.41203 | 34972 ft | 524 kts | 63° |
| 2026-04-28 04:27 | 44.77416 | -28.32466 | 34971 ft | 524 kts | 63° |
| 2026-04-28 04:27 | 44.81281 | -28.23840 | 34978 ft | 524 kts | 63° |
| 2026-04-28 04:28 | 44.85162 | -28.15150 | 34982 ft | 524 kts | 63° |
| 2026-04-28 04:28 | 44.89037 | -28.06450 | 34980 ft | 523 kts | 63° |
| 2026-04-28 04:29 | 44.92892 | -27.97767 | 34983 ft | 523 kts | 63° |
| 2026-04-28 04:29 | 44.96746 | -27.89061 | 34975 ft | 522 kts | 63° |
| 2026-04-28 04:30 | 45.00593 | -27.80342 | 35116 ft | 523 kts | 63° |
| 2026-04-28 04:30 | 45.04467 | -27.71530 | 35019 ft | 529 kts | 63° |
| 2026-04-28 04:31 | 45.08337 | -27.62705 | 34997 ft | 528 kts | 63° |
| 2026-04-28 04:31 | 45.12190 | -27.53899 | 34991 ft | 526 kts | 63° |
| 2026-04-28 04:32 | 45.16039 | -27.45069 | 34996 ft | 525 kts | 63° |
| 2026-04-28 04:32 | 45.19863 | -27.36266 | 35003 ft | 525 kts | 63° |
| 2026-04-28 04:33 | 45.23701 | -27.27403 | 35003 ft | 525 kts | 63° |
| 2026-04-28 04:33 | 45.27497 | -27.18613 | 35011 ft | 524 kts | 63° |
| 2026-04-28 04:34 | 45.31299 | -27.09780 | 35018 ft | 524 kts | 63° |
| 2026-04-28 04:34 | 45.35118 | -27.00879 | 35024 ft | 524 kts | 63° |
| 2026-04-28 04:35 | 45.38910 | -26.92013 | 35026 ft | 523 kts | 63° |
| 2026-04-28 04:35 | 45.42680 | -26.83171 | 35029 ft | 522 kts | 63° |
| 2026-04-28 04:36 | 45.46418 | -26.74376 | 35038 ft | 522 kts | 63° |
| 2026-04-28 04:36 | 45.50189 | -26.65478 | 35035 ft | 520 kts | 63° |
| 2026-04-28 04:37 | 45.53908 | -26.56672 | 35037 ft | 520 kts | 63° |
| 2026-04-28 04:37 | 45.57634 | -26.47821 | 35047 ft | 520 kts | 63° |
| 2026-04-28 04:38 | 45.61347 | -26.38976 | 35047 ft | 519 kts | 63° |
| 2026-04-28 04:38 | 45.65045 | -26.30136 | 35050 ft | 518 kts | 63° |
| 2026-04-28 04:39 | 45.68727 | -26.21307 | 35056 ft | 518 kts | 63° |
| 2026-04-28 04:39 | 45.72429 | -26.12403 | 35051 ft | 517 kts | 63° |
| 2026-04-28 04:40 | 45.76095 | -26.03559 | 35068 ft | 516 kts | 63° |
| 2026-04-28 04:40 | 45.79726 | -25.94768 | 35072 ft | 515 kts | 63° |
| 2026-04-28 04:41 | 45.83391 | -25.85869 | 35070 ft | 515 kts | 63° |
| 2026-04-28 04:41 | 45.87000 | -25.77076 | 35078 ft | 514 kts | 63° |
| 2026-04-28 04:42 | 45.90648 | -25.68160 | 35079 ft | 514 kts | 63° |
| 2026-04-28 04:42 | 45.94262 | -25.59300 | 35083 ft | 514 kts | 63° |
| 2026-04-28 04:43 | 45.97864 | -25.50440 | 35089 ft | 513 kts | 63° |
| 2026-04-28 04:43 | 46.01445 | -25.41604 | 35094 ft | 512 kts | 63° |
| 2026-04-28 04:44 | 46.05018 | -25.32761 | 35094 ft | 512 kts | 63° |
| 2026-04-28 04:44 | 46.08604 | -25.23854 | 35105 ft | 512 kts | 63° |
| 2026-04-28 04:45 | 46.12159 | -25.14999 | 35111 ft | 511 kts | 63° |
| 2026-04-28 04:45 | 46.15696 | -25.06158 | 35117 ft | 511 kts | 63° |
| 2026-04-28 04:46 | 46.19240 | -24.97272 | 35117 ft | 510 kts | 63° |
| 2026-04-28 04:46 | 46.22795 | -24.88330 | 35121 ft | 510 kts | 63° |
| 2026-04-28 04:47 | 46.26313 | -24.79451 | 35126 ft | 509 kts | 63° |
| 2026-04-28 04:47 | 46.29800 | -24.70622 | 35131 ft | 508 kts | 63° |
| 2026-04-28 04:48 | 46.33298 | -24.61736 | 35131 ft | 507 kts | 63° |
| 2026-04-28 04:48 | 46.36782 | -24.52858 | 35154 ft | 507 kts | 63° |
| 2026-04-28 04:49 | 46.40263 | -24.43956 | 35153 ft | 506 kts | 63° |
| 2026-04-28 04:49 | 46.43715 | -24.35102 | 35150 ft | 506 kts | 63° |
| 2026-04-28 04:50 | 46.47157 | -24.26246 | 35155 ft | 505 kts | 63° |
| 2026-04-28 04:50 | 46.50598 | -24.17362 | 35160 ft | 505 kts | 63° |
| 2026-04-28 04:51 | 46.54050 | -24.08419 | 35157 ft | 504 kts | 63° |
| 2026-04-28 04:51 | 46.57454 | -23.99574 | 35162 ft | 504 kts | 63° |
| 2026-04-28 04:52 | 46.60865 | -23.90680 | 35167 ft | 503 kts | 63° |
| 2026-04-28 04:52 | 46.64267 | -23.81780 | 35170 ft | 503 kts | 63° |
| 2026-04-28 04:53 | 46.67659 | -23.72878 | 35173 ft | 503 kts | 63° |
| 2026-04-28 04:53 | 46.71045 | -23.63962 | 35177 ft | 503 kts | 63° |
| 2026-04-28 04:54 | 46.73869 | -23.56502 | 35179 ft | 503 kts | 63° |
| 2026-04-28 04:54 | 46.77244 | -23.47564 | 35181 ft | 503 kts | 63° |
| 2026-04-28 04:55 | 46.80599 | -23.38646 | 35186 ft | 502 kts | 63° |
| 2026-04-28 04:55 | 46.83966 | -23.29667 | 35186 ft | 502 kts | 63° |
| 2026-04-28 04:56 | 46.87315 | -23.20705 | 35192 ft | 502 kts | 63° |
| 2026-04-28 04:56 | 46.90650 | -23.11753 | 35191 ft | 502 kts | 63° |
| 2026-04-28 04:57 | 46.93955 | -23.02852 | 35196 ft | 501 kts | 63° |
| 2026-04-28 04:57 | 46.97290 | -22.93837 | 35204 ft | 500 kts | 63° |
| 2026-04-28 04:58 | 47.00588 | -22.84895 | 35205 ft | 501 kts | 63° |
| 2026-04-28 04:58 | 47.03912 | -22.75849 | 35206 ft | 500 kts | 63° |
| 2026-04-28 04:59 | 47.07197 | -22.66883 | 35208 ft | 499 kts | 63° |
| 2026-04-28 04:59 | 47.10468 | -22.57923 | 35207 ft | 498 kts | 63° |
| 2026-04-28 05:00 | 47.13733 | -22.48948 | 35214 ft | 498 kts | 63° |
| 2026-04-28 05:00 | 47.16966 | -22.40034 | 35215 ft | 497 kts | 63° |
| 2026-04-28 05:01 | 47.20204 | -22.31074 | 35219 ft | 495 kts | 63° |
| 2026-04-28 05:01 | 47.23421 | -22.22140 | 35222 ft | 494 kts | 63° |
| 2026-04-28 05:02 | 47.26630 | -22.13200 | 35223 ft | 493 kts | 63° |
| 2026-04-28 05:02 | 47.29846 | -22.04212 | 35227 ft | 493 kts | 63° |
| 2026-04-28 05:03 | 47.33011 | -21.95334 | 35227 ft | 493 kts | 63° |
| 2026-04-28 05:03 | 47.36194 | -21.86377 | 35231 ft | 493 kts | 63° |
| 2026-04-28 05:04 | 47.39371 | -21.77406 | 35231 ft | 493 kts | 63° |
| 2026-04-28 05:04 | 47.42551 | -21.68395 | 35238 ft | 494 kts | 63° |
| 2026-04-28 05:05 | 47.45730 | -21.59358 | 35237 ft | 495 kts | 63° |
| 2026-04-28 05:05 | 47.48901 | -21.50310 | 35240 ft | 495 kts | 63° |
| 2026-04-28 05:06 | 47.52038 | -21.41329 | 35245 ft | 495 kts | 63° |
| 2026-04-28 05:06 | 47.55210 | -21.32218 | 35247 ft | 494 kts | 63° |
| 2026-04-28 05:07 | 47.58351 | -21.23163 | 35248 ft | 493 kts | 63° |
| 2026-04-28 05:07 | 47.61451 | -21.14195 | 35254 ft | 491 kts | 63° |
| 2026-04-28 05:08 | 47.64550 | -21.05200 | 35256 ft | 490 kts | 63° |
| 2026-04-28 05:08 | 47.67646 | -20.96181 | 35255 ft | 490 kts | 63° |
| 2026-04-28 05:09 | 47.70710 | -20.87224 | 35259 ft | 489 kts | 63° |
| 2026-04-28 05:09 | 47.73796 | -20.78172 | 35264 ft | 487 kts | 63° |
| 2026-04-28 05:10 | 47.76841 | -20.69209 | 35266 ft | 485 kts | 63° |
| 2026-04-28 05:10 | 47.79874 | -20.60252 | 35271 ft | 482 kts | 63° |
| 2026-04-28 05:11 | 47.82858 | -20.51408 | 35276 ft | 481 kts | 63° |
| 2026-04-28 05:11 | 47.85871 | -20.42447 | 35280 ft | 480 kts | 63° |
| 2026-04-28 05:12 | 47.88856 | -20.33539 | 35285 ft | 480 kts | 63° |
| 2026-04-28 05:12 | 47.91830 | -20.24631 | 35282 ft | 479 kts | 63° |
| 2026-04-28 05:13 | 47.94790 | -20.15737 | 35286 ft | 478 kts | 64° |
| 2026-04-28 05:13 | 47.97729 | -20.06868 | 35288 ft | 476 kts | 64° |
| 2026-04-28 05:14 | 47.99785 | -19.97541 | 35290 ft | 475 kts | 79° |
| 2026-04-28 05:14 | 48.00342 | -19.87687 | 35303 ft | 475 kts | 88° |
| 2026-04-28 05:15 | 48.00477 | -19.77849 | 35292 ft | 476 kts | 88° |
| 2026-04-28 05:15 | 48.00642 | -19.67887 | 35296 ft | 476 kts | 88° |
| 2026-04-28 05:16 | 48.00819 | -19.58075 | 35295 ft | 476 kts | 88° |
| 2026-04-28 05:16 | 48.00996 | -19.48110 | 35300 ft | 475 kts | 88° |
| 2026-04-28 05:17 | 48.01241 | -19.33405 | 35299 ft | 472 kts | 88° |
| 2026-04-28 05:17 | 48.01393 | -19.23627 | 35304 ft | 469 kts | 88° |
| 2026-04-28 05:18 | 48.01537 | -19.13871 | 35304 ft | 468 kts | 88° |
| 2026-04-28 05:18 | 48.01671 | -19.04152 | 35304 ft | 467 kts | 88° |
| 2026-04-28 05:19 | 48.01797 | -18.94447 | 35304 ft | 466 kts | 88° |
| 2026-04-28 05:19 | 48.01914 | -18.84781 | 35308 ft | 467 kts | 89° |
| 2026-04-28 05:20 | 48.02024 | -18.75072 | 35309 ft | 467 kts | 89° |
| 2026-04-28 05:20 | 48.02126 | -18.65340 | 35307 ft | 468 kts | 89° |
| 2026-04-28 05:21 | 48.02219 | -18.55622 | 35307 ft | 468 kts | 89° |
| 2026-04-28 05:21 | 48.02304 | -18.45962 | 35305 ft | 469 kts | 89° |
| 2026-04-28 05:22 | 48.02382 | -18.36145 | 35306 ft | 469 kts | 89° |
| 2026-04-28 05:22 | 48.02451 | -18.26393 | 35305 ft | 468 kts | 89° |
| 2026-04-28 05:23 | 48.02511 | -18.16741 | 35306 ft | 467 kts | 89° |
| 2026-04-28 05:23 | 48.02563 | -18.07036 | 35307 ft | 466 kts | 89° |
| 2026-04-28 05:24 | 48.02607 | -17.97357 | 35307 ft | 467 kts | 89° |
| 2026-04-28 05:24 | 48.02643 | -17.87651 | 35309 ft | 468 kts | 89° |
| 2026-04-28 05:25 | 48.02671 | -17.77892 | 35310 ft | 469 kts | 89° |
| 2026-04-28 05:25 | 48.02682 | -17.73068 | 35475 ft | 468 kts | 89° |
| 2026-04-28 05:25 | 48.02691 | -17.68167 | 35804 ft | 467 kts | 89° |
| 2026-04-28 05:26 | 48.02697 | -17.63325 | 36173 ft | 465 kts | 89° |
| 2026-04-28 05:26 | 48.02702 | -17.58458 | 36473 ft | 465 kts | 89° |
| 2026-04-28 05:26 | 48.02705 | -17.53625 | 36781 ft | 464 kts | 89° |
| 2026-04-28 05:26 | 48.02705 | -17.48873 | 37071 ft | 463 kts | 89° |
| 2026-04-28 05:27 | 48.02704 | -17.44074 | 37244 ft | 464 kts | 89° |
| 2026-04-28 05:27 | 48.02701 | -17.39217 | 37278 ft | 464 kts | 89° |
| 2026-04-28 05:27 | 48.02688 | -17.29549 | 37300 ft | 462 kts | 89° |
| 2026-04-28 05:28 | 48.02667 | -17.20025 | 37307 ft | 459 kts | 90° |
| 2026-04-28 05:28 | 48.02638 | -17.10468 | 37302 ft | 459 kts | 90° |
| 2026-04-28 05:29 | 48.02602 | -17.00975 | 37309 ft | 459 kts | 90° |
| 2026-04-28 05:29 | 48.02558 | -16.91429 | 37305 ft | 458 kts | 90° |
| 2026-04-28 05:30 | 48.02506 | -16.81930 | 37301 ft | 457 kts | 90° |
| 2026-04-28 05:30 | 48.02446 | -16.72421 | 37306 ft | 457 kts | 90° |
| 2026-04-28 05:31 | 48.02390 | -16.64531 | 37306 ft | 456 kts | 90° |
| 2026-04-28 05:31 | 48.02316 | -16.55061 | 37301 ft | 455 kts | 90° |
| 2026-04-28 05:32 | 48.02235 | -16.45582 | 37300 ft | 455 kts | 90° |
| 2026-04-28 05:32 | 48.02145 | -16.36152 | 37303 ft | 454 kts | 90° |
| 2026-04-28 05:33 | 48.02048 | -16.26704 | 37300 ft | 454 kts | 90° |
| 2026-04-28 05:33 | 48.01945 | -16.17334 | 37292 ft | 453 kts | 90° |
| 2026-04-28 05:34 | 48.01832 | -16.07883 | 37291 ft | 453 kts | 90° |
| 2026-04-28 05:34 | 48.01713 | -15.98545 | 37308 ft | 452 kts | 90° |
| 2026-04-28 05:35 | 48.01586 | -15.89138 | 37306 ft | 452 kts | 90° |
| 2026-04-28 05:35 | 48.01452 | -15.79766 | 37290 ft | 451 kts | 90° |
| 2026-04-28 05:36 | 48.01310 | -15.70401 | 37294 ft | 451 kts | 90° |
| 2026-04-28 05:36 | 48.01160 | -15.61055 | 37297 ft | 451 kts | 90° |
| 2026-04-28 05:37 | 48.01003 | -15.51684 | 37294 ft | 452 kts | 90° |
| 2026-04-28 05:37 | 48.00837 | -15.42240 | 37293 ft | 452 kts | 90° |
| 2026-04-28 05:38 | 48.00665 | -15.32894 | 37296 ft | 452 kts | 90° |
| 2026-04-28 05:38 | 48.00485 | -15.23534 | 37293 ft | 452 kts | 90° |
| 2026-04-28 05:39 | 48.00299 | -15.14143 | 37286 ft | 452 kts | 90° |
| 2026-04-28 05:39 | 48.00193 | -15.04788 | 37286 ft | 450 kts | 84° |
| 2026-04-28 05:40 | 48.01389 | -14.95591 | 37298 ft | 447 kts | 71° |
| 2026-04-28 05:40 | 48.03745 | -14.87085 | 37294 ft | 447 kts | 65° |
| 2026-04-28 05:41 | 48.06318 | -14.78547 | 37289 ft | 447 kts | 65° |
| 2026-04-28 05:41 | 48.08821 | -14.70121 | 37287 ft | 446 kts | 65° |
| 2026-04-28 05:42 | 48.11329 | -14.61592 | 37286 ft | 447 kts | 65° |
| 2026-04-28 05:42 | 48.13813 | -14.53095 | 37292 ft | 447 kts | 65° |
| 2026-04-28 05:43 | 48.16304 | -14.44541 | 37292 ft | 447 kts | 65° |
| 2026-04-28 05:43 | 48.18785 | -14.35994 | 37291 ft | 447 kts | 65° |
| 2026-04-28 05:44 | 48.21254 | -14.27460 | 37294 ft | 447 kts | 65° |
| 2026-04-28 05:44 | 48.23720 | -14.18906 | 37295 ft | 447 kts | 66° |
| 2026-04-28 05:45 | 48.26179 | -14.10345 | 37293 ft | 447 kts | 66° |
| 2026-04-28 05:45 | 48.28641 | -14.01743 | 37296 ft | 447 kts | 66° |
| 2026-04-28 05:46 | 48.31081 | -13.93188 | 37294 ft | 446 kts | 66° |
| 2026-04-28 05:46 | 48.33519 | -13.84610 | 37297 ft | 447 kts | 66° |
| 2026-04-28 05:47 | 48.35963 | -13.75979 | 37298 ft | 447 kts | 66° |
| 2026-04-28 05:47 | 48.38384 | -13.67400 | 37291 ft | 447 kts | 66° |
| 2026-04-28 05:48 | 48.40811 | -13.58769 | 37295 ft | 447 kts | 66° |
| 2026-04-28 05:48 | 48.43229 | -13.50137 | 37293 ft | 447 kts | 66° |
| 2026-04-28 05:49 | 48.45634 | -13.41521 | 37297 ft | 447 kts | 66° |
| 2026-04-28 05:49 | 48.48035 | -13.32888 | 37302 ft | 447 kts | 66° |
| 2026-04-28 05:50 | 48.50438 | -13.24217 | 37298 ft | 448 kts | 66° |
| 2026-04-28 05:50 | 48.52832 | -13.15545 | 37299 ft | 448 kts | 66° |
| 2026-04-28 05:51 | 48.55214 | -13.06887 | 37300 ft | 447 kts | 66° |
| 2026-04-28 05:51 | 48.57596 | -12.98193 | 37301 ft | 447 kts | 66° |
| 2026-04-28 05:52 | 48.59967 | -12.89510 | 37301 ft | 448 kts | 66° |
| 2026-04-28 05:52 | 48.62337 | -12.80798 | 37302 ft | 447 kts | 66° |
| 2026-04-28 05:53 | 48.64696 | -12.72094 | 37300 ft | 448 kts | 66° |
| 2026-04-28 05:53 | 48.67046 | -12.63394 | 37307 ft | 448 kts | 66° |
| 2026-04-28 05:54 | 48.69395 | -12.54661 | 37306 ft | 448 kts | 66° |
| 2026-04-28 05:54 | 48.71744 | -12.45898 | 37303 ft | 448 kts | 66° |
| 2026-04-28 05:55 | 48.74070 | -12.37185 | 37303 ft | 449 kts | 66° |
| 2026-04-28 05:55 | 48.76404 | -12.28410 | 37301 ft | 448 kts | 66° |
| 2026-04-28 05:56 | 48.78743 | -12.19584 | 37305 ft | 448 kts | 66° |
| 2026-04-28 05:56 | 48.81050 | -12.10852 | 37309 ft | 449 kts | 66° |
| 2026-04-28 05:57 | 48.83750 | -12.02318 | 37304 ft | 446 kts | 53° |
| 2026-04-28 05:57 | 48.87944 | -11.95442 | 37301 ft | 446 kts | 38° |
| 2026-04-28 05:58 | 48.93073 | -11.90023 | 37305 ft | 447 kts | 35° |
| 2026-04-28 05:58 | 48.98149 | -11.84590 | 37311 ft | 446 kts | 36° |
| 2026-04-28 05:59 | 49.03042 | -11.78903 | 37291 ft | 445 kts | 45° |
| 2026-04-28 05:59 | 49.06754 | -11.71383 | 37313 ft | 447 kts | 59° |
| 2026-04-28 06:00 | 49.09242 | -11.62627 | 37314 ft | 450 kts | 66° |
| 2026-04-28 06:00 | 49.11582 | -11.53754 | 37313 ft | 450 kts | 66° |
| 2026-04-28 06:01 | 49.13951 | -11.44858 | 37306 ft | 449 kts | 66° |
| 2026-04-28 06:01 | 49.16302 | -11.36076 | 37310 ft | 449 kts | 66° |
| 2026-04-28 06:02 | 49.18663 | -11.27251 | 37312 ft | 449 kts | 66° |
| 2026-04-28 06:02 | 49.21023 | -11.18403 | 37311 ft | 449 kts | 66° |
| 2026-04-28 06:03 | 49.23378 | -11.09530 | 37311 ft | 450 kts | 66° |
| 2026-04-28 06:03 | 49.25730 | -11.00638 | 37310 ft | 450 kts | 66° |
| 2026-04-28 06:04 | 49.28066 | -10.91767 | 37310 ft | 449 kts | 66° |
| 2026-04-28 06:04 | 49.30401 | -10.82871 | 37310 ft | 449 kts | 66° |
| 2026-04-28 06:05 | 49.32724 | -10.73984 | 37312 ft | 449 kts | 66° |
| 2026-04-28 06:05 | 49.35029 | -10.65132 | 37310 ft | 449 kts | 66° |
| 2026-04-28 06:06 | 49.37338 | -10.56228 | 37312 ft | 449 kts | 66° |
| 2026-04-28 06:06 | 49.39643 | -10.47305 | 37313 ft | 449 kts | 66° |
| 2026-04-28 06:07 | 49.41934 | -10.38403 | 37306 ft | 449 kts | 66° |
| 2026-04-28 06:07 | 49.43845 | -10.30953 | 37311 ft | 449 kts | 66° |
| 2026-04-28 06:08 | 49.46117 | -10.22060 | 37310 ft | 449 kts | 66° |
| 2026-04-28 06:08 | 49.48389 | -10.13132 | 37309 ft | 449 kts | 66° |
| 2026-04-28 06:09 | 49.50671 | -10.04131 | 37309 ft | 449 kts | 66° |
| 2026-04-28 06:09 | 49.52926 | -9.95198 | 37310 ft | 449 kts | 66° |
| 2026-04-28 06:10 | 49.55068 | -9.86679 | 37311 ft | 448 kts | 66° |
| 2026-04-28 06:10 | 49.57302 | -9.77762 | 37312 ft | 449 kts | 66° |
| 2026-04-28 06:11 | 49.59540 | -9.68795 | 37311 ft | 448 kts | 66° |
| 2026-04-28 06:11 | 49.61780 | -9.59779 | 37308 ft | 448 kts | 66° |
| 2026-04-28 06:12 | 49.63997 | -9.50824 | 37310 ft | 448 kts | 66° |
| 2026-04-28 06:12 | 49.66220 | -9.41807 | 37309 ft | 448 kts | 66° |
| 2026-04-28 06:13 | 49.68430 | -9.32807 | 37310 ft | 448 kts | 66° |
| 2026-04-28 06:13 | 49.70637 | -9.23780 | 37307 ft | 448 kts | 66° |
| 2026-04-28 06:14 | 49.72820 | -9.14814 | 37305 ft | 447 kts | 66° |
| 2026-04-28 06:14 | 49.75002 | -9.05816 | 37307 ft | 447 kts | 66° |
| 2026-04-28 06:15 | 49.77194 | -8.96743 | 37311 ft | 448 kts | 66° |
| 2026-04-28 06:15 | 49.79356 | -8.87755 | 37307 ft | 448 kts | 66° |
| 2026-04-28 06:16 | 49.81524 | -8.78705 | 37305 ft | 448 kts | 66° |
| 2026-04-28 06:16 | 49.83680 | -8.69666 | 37305 ft | 447 kts | 66° |
| 2026-04-28 06:17 | 49.85820 | -8.60659 | 37305 ft | 447 kts | 66° |
| 2026-04-28 06:18 | 49.89040 | -8.47035 | 37308 ft | 447 kts | 66° |
| 2026-04-28 06:18 | 49.91169 | -8.37979 | 37310 ft | 447 kts | 66° |
| 2026-04-28 06:19 | 49.93296 | -8.28894 | 37295 ft | 447 kts | 66° |
| 2026-04-28 06:19 | 49.95412 | -8.19815 | 37298 ft | 447 kts | 66° |
| 2026-04-28 06:20 | 49.97519 | -8.10740 | 37297 ft | 447 kts | 66° |
| 2026-04-28 06:20 | 49.99621 | -8.01650 | 37295 ft | 447 kts | 66° |
| 2026-04-28 06:21 | 50.01812 | -7.92607 | 37297 ft | 446 kts | 64° |
| 2026-04-28 06:21 | 50.04136 | -7.83641 | 37295 ft | 446 kts | 64° |
| 2026-04-28 06:22 | 50.06428 | -7.74772 | 37296 ft | 446 kts | 64° |
| 2026-04-28 06:22 | 50.08731 | -7.65737 | 37293 ft | 446 kts | 64° |
| 2026-04-28 06:23 | 50.11004 | -7.56735 | 37299 ft | 446 kts | 64° |
| 2026-04-28 06:23 | 50.13268 | -7.47721 | 37297 ft | 446 kts | 64° |
| 2026-04-28 06:24 | 50.15514 | -7.38747 | 37291 ft | 446 kts | 64° |
| 2026-04-28 06:24 | 50.17766 | -7.29713 | 37296 ft | 446 kts | 64° |
| 2026-04-28 06:25 | 50.20009 | -7.20683 | 37292 ft | 445 kts | 64° |
| 2026-04-28 06:25 | 50.22242 | -7.11652 | 37295 ft | 445 kts | 64° |
| 2026-04-28 06:26 | 50.24459 | -7.02648 | 37294 ft | 445 kts | 64° |
| 2026-04-28 06:26 | 50.26676 | -6.93611 | 37298 ft | 446 kts | 64° |
| 2026-04-28 06:27 | 50.28899 | -6.84512 | 37297 ft | 446 kts | 64° |
| 2026-04-28 06:27 | 50.31107 | -6.75434 | 37297 ft | 446 kts | 64° |
| 2026-04-28 06:28 | 50.33304 | -6.66363 | 37296 ft | 446 kts | 64° |
| 2026-04-28 06:28 | 50.35488 | -6.57313 | 37309 ft | 446 kts | 64° |
| 2026-04-28 06:29 | 50.37691 | -6.48146 | 37313 ft | 447 kts | 65° |
| 2026-04-28 06:29 | 50.39868 | -6.39047 | 37291 ft | 448 kts | 65° |
| 2026-04-28 06:30 | 50.42043 | -6.29916 | 37295 ft | 448 kts | 65° |
| 2026-04-28 06:30 | 50.44220 | -6.20739 | 37309 ft | 448 kts | 65° |
| 2026-04-28 06:31 | 50.46400 | -6.11513 | 37303 ft | 449 kts | 65° |
| 2026-04-28 06:31 | 50.48564 | -6.02313 | 37307 ft | 449 kts | 65° |
| 2026-04-28 06:32 | 50.50713 | -5.93139 | 37302 ft | 450 kts | 65° |
| 2026-04-28 06:32 | 50.52862 | -5.83925 | 37305 ft | 450 kts | 65° |
| 2026-04-28 06:33 | 50.55024 | -5.74615 | 37302 ft | 451 kts | 65° |
| 2026-04-28 06:33 | 50.57155 | -5.65402 | 37300 ft | 452 kts | 65° |
| 2026-04-28 06:34 | 50.59293 | -5.56116 | 37305 ft | 452 kts | 65° |
| 2026-04-28 06:34 | 50.61422 | -5.46827 | 37305 ft | 453 kts | 65° |
| 2026-04-28 06:35 | 50.63553 | -5.37486 | 37306 ft | 453 kts | 66° |
| 2026-04-28 06:35 | 50.65680 | -5.28126 | 37307 ft | 453 kts | 66° |
| 2026-04-28 06:36 | 50.67812 | -5.18703 | 37300 ft | 453 kts | 66° |
| 2026-04-28 06:36 | 50.69922 | -5.09334 | 37306 ft | 454 kts | 66° |
| 2026-04-28 06:37 | 50.72030 | -4.99931 | 37306 ft | 454 kts | 66° |
| 2026-04-28 06:37 | 50.74131 | -4.90516 | 37312 ft | 455 kts | 66° |
| 2026-04-28 06:38 | 50.75872 | -4.82683 | 37315 ft | 455 kts | 66° |
| 2026-04-28 06:38 | 50.78317 | -4.71633 | 37318 ft | 456 kts | 66° |
| 2026-04-28 06:39 | 50.80054 | -4.63749 | 37310 ft | 456 kts | 67° |
| 2026-04-28 06:39 | 50.82134 | -4.54263 | 37312 ft | 456 kts | 67° |
| 2026-04-28 06:40 | 50.84216 | -4.44728 | 37321 ft | 456 kts | 67° |
| 2026-04-28 06:40 | 50.86261 | -4.35316 | 37308 ft | 457 kts | 67° |
| 2026-04-28 06:41 | 50.88342 | -4.25696 | 37313 ft | 457 kts | 67° |
| 2026-04-28 06:41 | 50.90378 | -4.16244 | 37327 ft | 457 kts | 67° |
| 2026-04-28 06:42 | 50.92437 | -4.06633 | 37318 ft | 457 kts | 68° |
| 2026-04-28 06:42 | 50.94478 | -3.97067 | 37318 ft | 458 kts | 68° |
| 2026-04-28 06:43 | 50.96507 | -3.87511 | 37315 ft | 459 kts | 68° |
| 2026-04-28 06:43 | 50.98540 | -3.77890 | 37317 ft | 460 kts | 68° |
| 2026-04-28 06:44 | 51.00573 | -3.68222 | 37309 ft | 460 kts | 68° |
| 2026-04-28 06:44 | 51.02595 | -3.58556 | 37308 ft | 460 kts | 68° |
| 2026-04-28 06:45 | 51.04610 | -3.48886 | 37310 ft | 461 kts | 68° |
| 2026-04-28 06:45 | 51.06617 | -3.39202 | 37308 ft | 463 kts | 69° |
| 2026-04-28 06:46 | 51.08626 | -3.29461 | 37312 ft | 464 kts | 69° |
| 2026-04-28 06:46 | 51.10635 | -3.19671 | 37313 ft | 465 kts | 69° |
| 2026-04-28 06:47 | 51.12651 | -3.09803 | 37304 ft | 466 kts | 69° |
| 2026-04-28 06:47 | 51.14648 | -2.99972 | 37306 ft | 466 kts | 69° |
| 2026-04-28 06:48 | 51.16635 | -2.90141 | 37299 ft | 466 kts | 69° |
| 2026-04-28 06:48 | 51.18613 | -2.80314 | 37297 ft | 465 kts | 69° |
| 2026-04-28 06:49 | 51.20578 | -2.70494 | 37322 ft | 465 kts | 70° |
| 2026-04-28 06:49 | 51.22531 | -2.60692 | 37319 ft | 464 kts | 70° |
| 2026-04-28 06:50 | 51.24501 | -2.50751 | 37312 ft | 465 kts | 70° |
| 2026-04-28 06:50 | 51.26434 | -2.40946 | 37308 ft | 465 kts | 70° |
| 2026-04-28 06:51 | 51.28372 | -2.31064 | 37301 ft | 464 kts | 70° |
| 2026-04-28 06:51 | 51.30287 | -2.21248 | 37290 ft | 464 kts | 70° |
| 2026-04-28 06:52 | 51.32199 | -2.11400 | 37286 ft | 463 kts | 70° |
| 2026-04-28 06:52 | 51.34121 | -2.01460 | 37282 ft | 464 kts | 70° |
| 2026-04-28 06:53 | 51.36162 | -1.91713 | 37279 ft | 464 kts | 68° |
| 2026-04-28 06:53 | 51.38395 | -1.81975 | 37281 ft | 465 kts | 68° |
| 2026-04-28 06:54 | 51.40563 | -1.72203 | 37282 ft | 466 kts | 68° |
| 2026-04-28 06:54 | 51.42712 | -1.62390 | 37298 ft | 466 kts | 69° |
| 2026-04-28 06:55 | 51.44853 | -1.52593 | 37291 ft | 466 kts | 69° |
| 2026-04-28 06:55 | 51.46992 | -1.42766 | 37290 ft | 467 kts | 69° |
| 2026-04-28 06:56 | 51.49121 | -1.32935 | 37289 ft | 467 kts | 69° |
| 2026-04-28 06:56 | 51.51251 | -1.23061 | 37294 ft | 467 kts | 69° |
| 2026-04-28 06:57 | 51.53263 | -1.13138 | 37292 ft | 469 kts | 73° |
| 2026-04-28 06:57 | 51.54890 | -1.02997 | 37297 ft | 469 kts | 74° |
| 2026-04-28 06:58 | 51.56498 | -0.92805 | 37295 ft | 470 kts | 74° |
| 2026-04-28 06:58 | 51.58086 | -0.82801 | 37294 ft | 470 kts | 74° |
| 2026-04-28 06:59 | 51.59714 | -0.72546 | 37281 ft | 470 kts | 74° |
| 2026-04-28 06:59 | 51.61314 | -0.62416 | 37290 ft | 470 kts | 74° |
| 2026-04-28 07:00 | 51.62922 | -0.52163 | 37298 ft | 471 kts | 74° |
| 2026-04-28 07:00 | 51.64253 | -0.43620 | 37293 ft | 471 kts | 74° |
| 2026-04-28 07:00 | 51.65049 | -0.38494 | 37401 ft | 471 kts | 74° |
| 2026-04-28 07:01 | 51.65834 | -0.33424 | 37400 ft | 471 kts | 75° |
| 2026-04-28 07:01 | 51.67421 | -0.23127 | 37402 ft | 471 kts | 75° |
| 2026-04-28 07:02 | 51.69125 | -0.12853 | 37407 ft | 470 kts | 73° |
| 2026-04-28 07:02 | 51.70755 | -0.02660 | 37379 ft | 471 kts | 75° |
| 2026-04-28 07:03 | 51.72303 | 0.07451 | 37306 ft | 472 kts | 75° |
| 2026-04-28 07:03 | 51.73885 | 0.17758 | 37309 ft | 471 kts | 75° |
| 2026-04-28 07:04 | 51.75463 | 0.28023 | 37318 ft | 471 kts | 75° |
| 2026-04-28 07:04 | 51.77028 | 0.38250 | 37320 ft | 471 kts | 75° |
| 2026-04-28 07:05 | 51.78599 | 0.48589 | 37306 ft | 471 kts | 75° |
| 2026-04-28 07:05 | 51.80158 | 0.58916 | 37302 ft | 471 kts | 75° |
| 2026-04-28 07:06 | 51.81705 | 0.69178 | 37292 ft | 470 kts | 75° |
| 2026-04-28 07:06 | 51.83296 | 0.79509 | 37292 ft | 471 kts | 75° |
| 2026-04-28 07:07 | 51.84985 | 0.89677 | 37303 ft | 470 kts | 72° |
| 2026-04-28 07:07 | 51.86892 | 0.99851 | 37298 ft | 469 kts | 72° |
| 2026-04-28 07:08 | 51.88758 | 1.09917 | 37306 ft | 468 kts | 72° |
| 2026-04-28 07:08 | 51.90588 | 1.20047 | 37300 ft | 467 kts | 73° |
| 2026-04-28 07:09 | 51.92414 | 1.30277 | 37299 ft | 465 kts | 73° |
| 2026-04-28 07:09 | 51.94192 | 1.40290 | 37299 ft | 463 kts | 73° |
| 2026-04-28 07:10 | 51.95974 | 1.50370 | 36744 ft | 473 kts | 73° |
| 2026-04-28 07:10 | 51.96884 | 1.55540 | 36175 ft | 477 kts | 73° |
| 2026-04-28 07:10 | 51.97796 | 1.60732 | 35429 ft | 479 kts | 73° |
| 2026-04-28 07:10 | 51.98705 | 1.65925 | 34991 ft | 470 kts | 73° |
| 2026-04-28 07:11 | 51.99572 | 1.70969 | 34447 ft | 465 kts | 74° |
| 2026-04-28 07:11 | 52.00388 | 1.76059 | 33798 ft | 460 kts | 75° |
| 2026-04-28 07:11 | 52.01155 | 1.81022 | 32917 ft | 460 kts | 75° |
| 2026-04-28 07:11 | 52.01932 | 1.86106 | 31988 ft | 461 kts | 75° |
| 2026-04-28 07:12 | 52.02718 | 1.91241 | 31066 ft | 462 kts | 75° |
| 2026-04-28 07:12 | 52.03501 | 1.96333 | 30305 ft | 459 kts | 75° |
| 2026-04-28 07:12 | 52.04286 | 2.01433 | 29676 ft | 451 kts | 75° |
| 2026-04-28 07:12 | 52.05036 | 2.06299 | 29039 ft | 444 kts | 75° |
| 2026-04-28 07:13 | 52.05782 | 2.11145 | 28384 ft | 438 kts | 75° |
| 2026-04-28 07:13 | 52.06527 | 2.15999 | 27736 ft | 433 kts | 75° |
| 2026-04-28 07:13 | 52.07251 | 2.20730 | 27098 ft | 428 kts | 75° |
| 2026-04-28 07:13 | 52.07965 | 2.25411 | 26499 ft | 423 kts | 76° |
| 2026-04-28 07:14 | 52.08666 | 2.30019 | 25922 ft | 418 kts | 76° |
| 2026-04-28 07:14 | 52.09363 | 2.34615 | 25340 ft | 412 kts | 76° |
| 2026-04-28 07:14 | 52.10048 | 2.39142 | 24796 ft | 407 kts | 76° |
| 2026-04-28 07:14 | 52.10717 | 2.43578 | 24270 ft | 403 kts | 76° |
| 2026-04-28 07:15 | 52.11401 | 2.48007 | 23683 ft | 398 kts | 74° |
| 2026-04-28 07:15 | 52.12455 | 2.52107 | 22901 ft | 394 kts | 60° |
| 2026-04-28 07:15 | 52.13903 | 2.55800 | 22612 ft | 386 kts | 59° |
| 2026-04-28 07:15 | 52.15342 | 2.59538 | 22242 ft | 390 kts | 60° |
| 2026-04-28 07:16 | 52.16751 | 2.63331 | 21889 ft | 393 kts | 60° |
| 2026-04-28 07:16 | 52.18151 | 2.67166 | 21529 ft | 393 kts | 61° |
| 2026-04-28 07:16 | 52.19533 | 2.70984 | 21189 ft | 392 kts | 61° |
| 2026-04-28 07:16 | 52.20917 | 2.74827 | 20840 ft | 390 kts | 61° |
| 2026-04-28 07:17 | 52.22280 | 2.78622 | 20490 ft | 388 kts | 61° |
| 2026-04-28 07:17 | 52.23645 | 2.82426 | 20150 ft | 386 kts | 61° |
| 2026-04-28 07:17 | 52.24988 | 2.86175 | 19805 ft | 384 kts | 61° |
| 2026-04-28 07:17 | 52.26341 | 2.89959 | 19471 ft | 383 kts | 61° |
| 2026-04-28 07:18 | 52.27683 | 2.93714 | 19124 ft | 381 kts | 61° |
| 2026-04-28 07:18 | 52.29013 | 2.97443 | 18806 ft | 379 kts | 61° |
| 2026-04-28 07:18 | 52.30336 | 3.01157 | 18438 ft | 378 kts | 61° |
| 2026-04-28 07:18 | 52.31655 | 3.04867 | 18076 ft | 376 kts | 61° |
| 2026-04-28 07:19 | 52.32959 | 3.08538 | 17719 ft | 373 kts | 61° |
| 2026-04-28 07:19 | 52.33839 | 3.11016 | 17475 ft | 371 kts | 61° |
| 2026-04-28 07:19 | 52.35130 | 3.14661 | 17172 ft | 369 kts | 62° |
| 2026-04-28 07:19 | 52.36407 | 3.18271 | 16848 ft | 368 kts | 62° |
| 2026-04-28 07:20 | 52.37693 | 3.21911 | 16510 ft | 367 kts | 62° |
| 2026-04-28 07:20 | 52.38963 | 3.25511 | 16178 ft | 364 kts | 62° |
| 2026-04-28 07:20 | 52.40229 | 3.29104 | 15862 ft | 362 kts | 62° |
| 2026-04-28 07:20 | 52.41480 | 3.32659 | 15532 ft | 361 kts | 62° |
| 2026-04-28 07:21 | 52.42740 | 3.36246 | 15220 ft | 360 kts | 62° |
| 2026-04-28 07:21 | 52.43981 | 3.39783 | 14897 ft | 358 kts | 62° |
| 2026-04-28 07:21 | 52.45091 | 3.43364 | 14559 ft | 350 kts | 71° |
| 2026-04-28 07:22 | 52.46184 | 3.51310 | 13935 ft | 354 kts | 78° |
| 2026-04-28 07:22 | 52.46699 | 3.55168 | 13598 ft | 350 kts | 78° |
| 2026-04-28 07:22 | 52.47242 | 3.59074 | 13265 ft | 346 kts | 78° |
| 2026-04-28 07:22 | 52.47785 | 3.62925 | 12961 ft | 344 kts | 78° |
| 2026-04-28 07:23 | 52.48328 | 3.66755 | 12652 ft | 346 kts | 78° |
| 2026-04-28 07:23 | 52.48873 | 3.70598 | 12358 ft | 345 kts | 78° |
| 2026-04-28 07:23 | 52.49412 | 3.74400 | 12026 ft | 339 kts | 78° |
| 2026-04-28 07:23 | 52.49943 | 3.78151 | 11729 ft | 331 kts | 78° |
| 2026-04-28 07:24 | 52.50457 | 3.81785 | 11437 ft | 323 kts | 78° |
| 2026-04-28 07:24 | 52.50945 | 3.85241 | 11133 ft | 297 kts | 78° |
| 2026-04-28 07:24 | 52.51381 | 3.88332 | 10855 ft | 272 kts | 78° |
| 2026-04-28 07:24 | 52.51801 | 3.91334 | 10413 ft | 257 kts | 78° |
| 2026-04-28 07:25 | 52.52170 | 3.94146 | 9808 ft | 247 kts | 84° |
| 2026-04-28 07:25 | 52.51986 | 3.96910 | 8914 ft | 248 kts | 112° |
| 2026-04-28 07:25 | 52.51105 | 3.99321 | 8253 ft | 245 kts | 126° |
| 2026-04-28 07:25 | 52.49968 | 4.01456 | 7497 ft | 250 kts | 129° |
| 2026-04-28 07:26 | 52.48770 | 4.03533 | 7175 ft | 249 kts | 130° |
| 2026-04-28 07:26 | 52.47578 | 4.05580 | 6919 ft | 246 kts | 130° |
| 2026-04-28 07:26 | 52.46407 | 4.07594 | 6642 ft | 244 kts | 130° |
| 2026-04-28 07:26 | 52.45223 | 4.09636 | 6276 ft | 245 kts | 130° |
| 2026-04-28 07:27 | 52.44065 | 4.11642 | 6022 ft | 242 kts | 129° |
| 2026-04-28 07:27 | 52.42920 | 4.13623 | 5850 ft | 235 kts | 129° |
| 2026-04-28 07:27 | 52.41818 | 4.15530 | 5735 ft | 226 kts | 129° |
| 2026-04-28 07:27 | 52.40747 | 4.17389 | 5491 ft | 222 kts | 129° |
| 2026-04-28 07:28 | 52.39682 | 4.19239 | 5240 ft | 219 kts | 129° |
| 2026-04-28 07:28 | 52.38647 | 4.21040 | 4957 ft | 218 kts | 129° |
| 2026-04-28 07:28 | 52.37628 | 4.22810 | 4949 ft | 208 kts | 129° |
| 2026-04-28 07:28 | 52.36615 | 4.24573 | 4966 ft | 215 kts | 129° |
| 2026-04-28 07:29 | 52.35572 | 4.26390 | 4989 ft | 220 kts | 129° |
| 2026-04-28 07:29 | 52.34740 | 4.27837 | 4992 ft | 222 kts | 129° |
| 2026-04-28 07:29 | 52.33675 | 4.29683 | 4982 ft | 221 kts | 129° |
| 2026-04-28 07:29 | 52.32623 | 4.31505 | 4978 ft | 219 kts | 129° |
| 2026-04-28 07:30 | 52.31583 | 4.33307 | 4980 ft | 219 kts | 129° |
| 2026-04-28 07:30 | 52.30536 | 4.35121 | 4978 ft | 219 kts | 129° |
| 2026-04-28 07:30 | 52.29475 | 4.36959 | 4715 ft | 224 kts | 129° |
| 2026-04-28 07:30 | 52.28406 | 4.38807 | 4468 ft | 221 kts | 129° |
| 2026-04-28 07:31 | 52.27344 | 4.40640 | 4293 ft | 218 kts | 129° |
| 2026-04-28 07:31 | 52.26302 | 4.42442 | 4017 ft | 219 kts | 129° |
| 2026-04-28 07:31 | 52.25275 | 4.44213 | 3781 ft | 217 kts | 128° |
| 2026-04-28 07:31 | 52.24292 | 4.45906 | 3583 ft | 218 kts | 129° |
| 2026-04-28 07:32 | 52.23252 | 4.47700 | 3314 ft | 219 kts | 128° |
| 2026-04-28 07:32 | 52.22210 | 4.49493 | 3047 ft | 215 kts | 127° |
| 2026-04-28 07:32 | 52.21466 | 4.51446 | 2812 ft | 192 kts | 99° |
| 2026-04-28 07:32 | 52.21595 | 4.53484 | 2637 ft | 173 kts | 69° |
| 2026-04-28 07:33 | 52.22059 | 4.55185 | 2447 ft | 161 kts | 65° |
| 2026-04-28 07:33 | 52.22523 | 4.56821 | 2281 ft | 155 kts | 67° |
| 2026-04-28 07:33 | 52.23011 | 4.58357 | 2151 ft | 146 kts | 61° |
| 2026-04-28 07:33 | 52.23506 | 4.59686 | 2028 ft | 126 kts | 60° |
| 2026-04-28 07:34 | 52.23936 | 4.60810 | 1885 ft | 117 kts | 61° |
| 2026-04-28 07:34 | 52.24388 | 4.61994 | 1734 ft | 125 kts | 58° |
| 2026-04-28 07:34 | 52.24755 | 4.62942 | 1574 ft | 126 kts | 59° |
| 2026-04-28 07:34 | 52.25198 | 4.64094 | 1395 ft | 128 kts | 59° |
| 2026-04-28 07:35 | 52.25665 | 4.65301 | 1287 ft | 132 kts | 59° |
| 2026-04-28 07:35 | 52.26158 | 4.66585 | 1048 ft | 129 kts | 57° |
| 2026-04-28 07:35 | 52.26634 | 4.67819 | 858 ft | 129 kts | 57° |
| 2026-04-28 07:35 | 52.27126 | 4.69096 | 690 ft | 134 kts | 57° |
| 2026-04-28 07:36 | 52.27614 | 4.70418 | 464 ft | 137 kts | 58° |
| 2026-04-28 07:36 | 52.28121 | 4.71726 | 242 ft | 139 kts | 55° |
| 2026-04-28 07:36 | 52.28477 | 4.72612 | 120 ft | 136 kts | 57° |
| 2026-04-28 07:36 | 52.28991 | 4.73930 | 11 ft | 127 kts | 56° |
| 2026-04-28 07:37 | 52.29410 | 4.75016 | 3 ft | 90 kts | 59° |
| 2026-04-28 07:37 | 52.29648 | 4.75630 | 3 ft | 38 kts | 57° |
| 2026-04-28 07:37 | 52.29759 | 4.75936 | 2 ft | 30 kts | 56° |
| 2026-04-28 07:37 | 52.29870 | 4.76222 | 1 ft | 30 kts | 53° |
| 2026-04-28 07:38 | 52.29993 | 4.76494 | 3 ft | 30 kts | 40° |
| 2026-04-28 07:38 | 52.30175 | 4.76660 | 4 ft | 30 kts | 28° |
| 2026-04-28 07:38 | 52.30334 | 4.76878 | 4 ft | 30 kts | 58° |
| 2026-04-28 07:38 | 52.30443 | 4.77162 | 4 ft | 30 kts | 58° |
| 2026-04-28 07:39 | 52.30550 | 4.77440 | 4 ft | 23 kts | 58° |
| 2026-04-28 07:39 | 52.30674 | 4.77586 | 4 ft | 23 kts | 7° |
| 2026-04-28 07:39 | 52.30833 | 4.77603 | 4 ft | 23 kts | 4° |
| 2026-04-28 07:39 | 52.30995 | 4.77620 | 4 ft | 23 kts | 3° |
| 2026-04-28 07:40 | 52.31154 | 4.77631 | 4 ft | 23 kts | 1° |
| 2026-04-28 07:40 | 52.31312 | 4.77647 | 4 ft | 23 kts | 4° |
| 2026-04-28 07:40 | 52.31411 | 4.77641 | 4 ft | 12 kts | 333° |
| 2026-04-28 07:40 | 52.31411 | 4.77525 | 4 ft | 11 kts | 231° |
| 2026-04-28 07:41 | 52.31349 | 4.77439 | 4 ft | 12 kts | 214° |
| 2026-04-28 07:41 | 52.31296 | 4.77344 | 4 ft | 12 kts | 254° |
| 2026-04-28 07:41 | 52.31295 | 4.77204 | 4 ft | 12 kts | 272° |
| 2026-04-28 07:41 | 52.31267 | 4.77077 | 4 ft | 12 kts | 228° |
| 2026-04-28 07:42 | 52.31195 | 4.76992 | 4 ft | 13 kts | 214° |
| 2026-04-28 07:42 | 52.31117 | 4.76906 | 4 ft | 13 kts | 214° |
| 2026-04-28 07:42 | 52.31046 | 4.76831 | 4 ft | 7 kts | 211° |
| 2026-04-28 07:42 | 52.31009 | 4.76780 | 4 ft | 7 kts | 232° |
| 2026-04-28 07:43 | 52.30997 | 4.76701 | 4 ft | 8 kts | 288° |
| 2026-04-28 07:43 | 52.31011 | 4.76657 | 4 ft | 0 kts | 301° |
| 2026-04-28 07:43 | 52.31014 | 4.76649 | 4 ft | 1 kts | 301° |
| 2026-04-28 07:43 | 52.31020 | 4.76633 | 4 ft | 2 kts | 302° |
| 2026-04-28 07:44 | 52.31026 | 4.76617 | 4 ft | 0 kts | 302° |